<?xml version="1.0" encoding="UTF-8" standalone="no" ?><gpx xmlns="http://www.topografix.com/GPX/1/1" xmlns:gpxx="http://www.garmin.com/xmlschemas/GpxExtensions/v3" xmlns:gpxtrkx="http://www.garmin.com/xmlschemas/TrackStatsExtension/v1" xmlns:wptx1="http://www.garmin.com/xmlschemas/WaypointExtension/v1" xmlns:gpxtpx="http://www.garmin.com/xmlschemas/TrackPointExtension/v1" creator="Oregon 600" version="1.1" xmlns:xsi="http://www.w3.org/2001/XMLSchema-instance" xsi:schemaLocation="http://www.topografix.com/GPX/1/1 http://www.topografix.com/GPX/1/1/gpx.xsd http://www.garmin.com/xmlschemas/GpxExtensions/v3 http://www8.garmin.com/xmlschemas/GpxExtensionsv3.xsd http://www.garmin.com/xmlschemas/TrackStatsExtension/v1 http://www8.garmin.com/xmlschemas/TrackStatsExtension.xsd http://www.garmin.com/xmlschemas/WaypointExtension/v1 http://www8.garmin.com/xmlschemas/WaypointExtensionv1.xsd http://www.garmin.com/xmlschemas/TrackPointExtension/v1 http://www.garmin.com/xmlschemas/TrackPointExtensionv1.xsd"><metadata><link href="http://www.garmin.com"><text>Garmin International</text></link><time>2014-12-23T14:15:22Z</time></metadata><trk><name>2014-12-23 15:15:20</name><extensions><gpxx:TrackExtension><gpxx:DisplayColor>Cyan</gpxx:DisplayColor></gpxx:TrackExtension><gpxtrkx:TrackStatsExtension><gpxtrkx:Distance>8414</gpxtrkx:Distance><gpxtrkx:TimerTime>17999</gpxtrkx:TimerTime><gpxtrkx:TotalElapsedTime>18009</gpxtrkx:TotalElapsedTime><gpxtrkx:MovingTime>11694</gpxtrkx:MovingTime><gpxtrkx:StoppedTime>6305</gpxtrkx:StoppedTime><gpxtrkx:MovingSpeed>1</gpxtrkx:MovingSpeed><gpxtrkx:MaxSpeed>3</gpxtrkx:MaxSpeed><gpxtrkx:MaxElevation>2770</gpxtrkx:MaxElevation><gpxtrkx:MinElevation>2100</gpxtrkx:MinElevation><gpxtrkx:Ascent>702</gpxtrkx:Ascent><gpxtrkx:Descent>685</gpxtrkx:Descent><gpxtrkx:AvgAscentRate>1</gpxtrkx:AvgAscentRate><gpxtrkx:MaxAscentRate>0</gpxtrkx:MaxAscentRate><gpxtrkx:AvgDescentRate>1</gpxtrkx:AvgDescentRate><gpxtrkx:MaxDescentRate>-0</gpxtrkx:MaxDescentRate><gpxtrkx:Calories>417</gpxtrkx:Calories></gpxtrkx:TrackStatsExtension></extensions><trkseg><trkpt lat="42.5319103897" lon="1.6968418658"><ele>2099.80</ele><time>2014-12-23T09:15:13Z</time></trkpt><trkpt lat="42.5318637025" lon="1.6967341583"><ele>2099.84</ele><time>2014-12-23T09:15:47Z</time></trkpt><trkpt lat="42.5318149198" lon="1.6966653429"><ele>2100.32</ele><time>2014-12-23T09:16:09Z</time></trkpt><trkpt lat="42.5317681488" lon="1.6965396143"><ele>2100.37</ele><time>2014-12-23T09:16:21Z</time></trkpt><trkpt lat="42.5316963159" lon="1.6964531131"><ele>2100.58</ele><time>2014-12-23T09:16:35Z</time></trkpt><trkpt lat="42.5316177774" lon="1.6964899097"><ele>2100.62</ele><time>2014-12-23T09:16:45Z</time></trkpt><trkpt lat="42.5315575954" lon="1.6965849604"><ele>2100.90</ele><time>2014-12-23T09:16:54Z</time></trkpt><trkpt lat="42.5315003470" lon="1.6966821067"><ele>2100.95</ele><time>2014-12-23T09:17:04Z</time></trkpt><trkpt lat="42.5314368121" lon="1.6967676021"><ele>2100.84</ele><time>2014-12-23T09:17:13Z</time></trkpt><trkpt lat="42.5313585252" lon="1.6968386807"><ele>2100.75</ele><time>2014-12-23T09:17:22Z</time></trkpt><trkpt lat="42.5312881172" lon="1.6969231702"><ele>2100.22</ele><time>2014-12-23T09:17:31Z</time></trkpt><trkpt lat="42.5312110037" lon="1.6969955899"><ele>2100.75</ele><time>2014-12-23T09:17:40Z</time></trkpt><trkpt lat="42.5311197247" lon="1.6970092524"><ele>2101.15</ele><time>2014-12-23T09:17:49Z</time></trkpt><trkpt lat="42.5310346484" lon="1.6970031336"><ele>2102.01</ele><time>2014-12-23T09:17:59Z</time></trkpt><trkpt lat="42.5309428666" lon="1.6969617270"><ele>2102.82</ele><time>2014-12-23T09:18:10Z</time></trkpt><trkpt lat="42.5308453012" lon="1.6969326418"><ele>2103.32</ele><time>2014-12-23T09:18:21Z</time></trkpt><trkpt lat="42.5307422876" lon="1.6969473101"><ele>2104.04</ele><time>2014-12-23T09:18:31Z</time></trkpt><trkpt lat="42.5306595583" lon="1.6969804186"><ele>2103.81</ele><time>2014-12-23T09:18:44Z</time></trkpt><trkpt lat="42.5305733085" lon="1.6970249265"><ele>2103.80</ele><time>2014-12-23T09:18:53Z</time></trkpt><trkpt lat="42.5304877292" lon="1.6970656626"><ele>2103.99</ele><time>2014-12-23T09:19:02Z</time></trkpt><trkpt lat="42.5304023176" lon="1.6971118469"><ele>2104.69</ele><time>2014-12-23T09:19:11Z</time></trkpt><trkpt lat="42.5303257070" lon="1.6971338913"><ele>2104.38</ele><time>2014-12-23T09:19:21Z</time></trkpt><trkpt lat="42.5302317459" lon="1.6971373279"><ele>2104.40</ele><time>2014-12-23T09:19:30Z</time></trkpt><trkpt lat="42.5301324204" lon="1.6971437819"><ele>2104.36</ele><time>2014-12-23T09:19:37Z</time></trkpt><trkpt lat="42.5300452486" lon="1.6971604619"><ele>2104.21</ele><time>2014-12-23T09:19:43Z</time></trkpt><trkpt lat="42.5299595017" lon="1.6971746273"><ele>2104.09</ele><time>2014-12-23T09:19:50Z</time></trkpt><trkpt lat="42.5298646186" lon="1.6972069815"><ele>2103.92</ele><time>2014-12-23T09:19:58Z</time></trkpt><trkpt lat="42.5297592580" lon="1.6972319596"><ele>2103.92</ele><time>2014-12-23T09:20:07Z</time></trkpt><trkpt lat="42.5296715833" lon="1.6972650681"><ele>2103.89</ele><time>2014-12-23T09:20:14Z</time></trkpt><trkpt lat="42.5295839924" lon="1.6972522438"><ele>2103.56</ele><time>2014-12-23T09:20:24Z</time></trkpt><trkpt lat="42.5295528956" lon="1.6971289460"><ele>2103.31</ele><time>2014-12-23T09:20:37Z</time></trkpt><trkpt lat="42.5295930449" lon="1.6970020439"><ele>2103.72</ele><time>2014-12-23T09:20:49Z</time></trkpt><trkpt lat="42.5296575017" lon="1.6969073284"><ele>2104.18</ele><time>2014-12-23T09:20:59Z</time></trkpt><trkpt lat="42.5297108945" lon="1.6967917420"><ele>2104.37</ele><time>2014-12-23T09:21:10Z</time></trkpt><trkpt lat="42.5296888500" lon="1.6966550332"><ele>2104.14</ele><time>2014-12-23T09:21:20Z</time></trkpt><trkpt lat="42.5296611898" lon="1.6965327412"><ele>2104.81</ele><time>2014-12-23T09:21:30Z</time></trkpt><trkpt lat="42.5295969844" lon="1.6964660212"><ele>2105.19</ele><time>2014-12-23T09:21:39Z</time></trkpt><trkpt lat="42.5295142550" lon="1.6964857187"><ele>2105.56</ele><time>2014-12-23T09:21:47Z</time></trkpt><trkpt lat="42.5294235628" lon="1.6965178214"><ele>2105.68</ele><time>2014-12-23T09:21:56Z</time></trkpt><trkpt lat="42.5293280091" lon="1.6965469066"><ele>2106.09</ele><time>2014-12-23T09:22:05Z</time></trkpt><trkpt lat="42.5292347185" lon="1.6965813562"><ele>2107.02</ele><time>2014-12-23T09:22:15Z</time></trkpt><trkpt lat="42.5291463733" lon="1.6965901572"><ele>2107.44</ele><time>2014-12-23T09:22:25Z</time></trkpt><trkpt lat="42.5290405098" lon="1.6965603177"><ele>2108.68</ele><time>2014-12-23T09:22:36Z</time></trkpt><trkpt lat="42.5289350655" lon="1.6965806019"><ele>2109.80</ele><time>2014-12-23T09:22:46Z</time></trkpt><trkpt lat="42.5288650766" lon="1.6966394428"><ele>2111.46</ele><time>2014-12-23T09:23:01Z</time></trkpt><trkpt lat="42.5287823472" lon="1.6966858786"><ele>2111.85</ele><time>2014-12-23T09:23:10Z</time></trkpt><trkpt lat="42.5286967680" lon="1.6967444681"><ele>2112.99</ele><time>2014-12-23T09:23:20Z</time></trkpt><trkpt lat="42.5286000408" lon="1.6967805941"><ele>2114.29</ele><time>2014-12-23T09:23:31Z</time></trkpt><trkpt lat="42.5284890644" lon="1.6967927478"><ele>2115.30</ele><time>2014-12-23T09:23:40Z</time></trkpt><trkpt lat="42.5284009706" lon="1.6967607290"><ele>2116.35</ele><time>2014-12-23T09:23:49Z</time></trkpt><trkpt lat="42.5283026509" lon="1.6967317276"><ele>2117.05</ele><time>2014-12-23T09:24:00Z</time></trkpt><trkpt lat="42.5282029901" lon="1.6967121139"><ele>2118.13</ele><time>2014-12-23T09:24:11Z</time></trkpt><trkpt lat="42.5281057600" lon="1.6967001278"><ele>2118.79</ele><time>2014-12-23T09:24:21Z</time></trkpt><trkpt lat="42.5280075241" lon="1.6966851242"><ele>2120.48</ele><time>2014-12-23T09:24:31Z</time></trkpt><trkpt lat="42.5279027503" lon="1.6967019718"><ele>2121.82</ele><time>2014-12-23T09:24:40Z</time></trkpt><trkpt lat="42.5278039277" lon="1.6967096832"><ele>2123.74</ele><time>2014-12-23T09:24:50Z</time></trkpt><trkpt lat="42.5277176779" lon="1.6967401933"><ele>2125.55</ele><time>2014-12-23T09:25:01Z</time></trkpt><trkpt lat="42.5276287459" lon="1.6967407800"><ele>2126.63</ele><time>2014-12-23T09:25:11Z</time></trkpt><trkpt lat="42.5275356229" lon="1.6967541073"><ele>2128.33</ele><time>2014-12-23T09:25:22Z</time></trkpt><trkpt lat="42.5274357107" lon="1.6967667639"><ele>2130.26</ele><time>2014-12-23T09:25:33Z</time></trkpt><trkpt lat="42.5273296796" lon="1.6967738885"><ele>2132.69</ele><time>2014-12-23T09:25:49Z</time></trkpt><trkpt lat="42.5272252411" lon="1.6967665963"><ele>2135.24</ele><time>2014-12-23T09:26:04Z</time></trkpt><trkpt lat="42.5271188747" lon="1.6967935860"><ele>2137.42</ele><time>2014-12-23T09:26:19Z</time></trkpt><trkpt lat="42.5270313676" lon="1.6968240961"><ele>2138.36</ele><time>2014-12-23T09:26:29Z</time></trkpt><trkpt lat="42.5269397534" lon="1.6968670115"><ele>2138.74</ele><time>2014-12-23T09:26:39Z</time></trkpt><trkpt lat="42.5268692616" lon="1.6969183926"><ele>2139.86</ele><time>2014-12-23T09:26:50Z</time></trkpt><trkpt lat="42.5267969258" lon="1.6970079951"><ele>2140.95</ele><time>2014-12-23T09:27:01Z</time></trkpt><trkpt lat="42.5267414376" lon="1.6971091647"><ele>2141.55</ele><time>2014-12-23T09:27:12Z</time></trkpt><trkpt lat="42.5266774837" lon="1.6972322948"><ele>2141.64</ele><time>2014-12-23T09:27:24Z</time></trkpt><trkpt lat="42.5266051479" lon="1.6973203886"><ele>2142.16</ele><time>2014-12-23T09:27:38Z</time></trkpt><trkpt lat="42.5265511684" lon="1.6973630525"><ele>2142.86</ele><time>2014-12-23T09:28:08Z</time></trkpt><trkpt lat="42.5264942553" lon="1.6973755416"><ele>2143.02</ele><time>2014-12-23T09:29:57Z</time></trkpt><trkpt lat="42.5263922475" lon="1.6974030342"><ele>2143.81</ele><time>2014-12-23T09:30:08Z</time></trkpt><trkpt lat="42.5262878928" lon="1.6974323709"><ele>2144.47</ele><time>2014-12-23T09:30:18Z</time></trkpt><trkpt lat="42.5261957757" lon="1.6974472906"><ele>2144.10</ele><time>2014-12-23T09:30:27Z</time></trkpt><trkpt lat="42.5261120405" lon="1.6974120028"><ele>2143.70</ele><time>2014-12-23T09:30:39Z</time></trkpt><trkpt lat="42.5260269642" lon="1.6972928122"><ele>2145.38</ele><time>2014-12-23T09:30:54Z</time></trkpt><trkpt lat="42.5259566400" lon="1.6971780639"><ele>2147.84</ele><time>2014-12-23T09:31:09Z</time></trkpt><trkpt lat="42.5258822087" lon="1.6970560234"><ele>2150.44</ele><time>2014-12-23T09:31:23Z</time></trkpt><trkpt lat="42.5257917680" lon="1.6969745513"><ele>2152.99</ele><time>2014-12-23T09:31:38Z</time></trkpt><trkpt lat="42.5257016625" lon="1.6969118547"><ele>2155.18</ele><time>2014-12-23T09:31:51Z</time></trkpt><trkpt lat="42.5256218668" lon="1.6968489904"><ele>2158.07</ele><time>2014-12-23T09:32:06Z</time></trkpt><trkpt lat="42.5255312584" lon="1.6967960168"><ele>2160.26</ele><time>2014-12-23T09:32:19Z</time></trkpt><trkpt lat="42.5254488643" lon="1.6967236809"><ele>2162.78</ele><time>2014-12-23T09:32:33Z</time></trkpt><trkpt lat="42.5253797136" lon="1.6966114473"><ele>2165.59</ele><time>2014-12-23T09:32:48Z</time></trkpt><trkpt lat="42.5252861716" lon="1.6965203360"><ele>2167.80</ele><time>2014-12-23T09:33:00Z</time></trkpt><trkpt lat="42.5251798052" lon="1.6965315677"><ele>2169.19</ele><time>2014-12-23T09:33:14Z</time></trkpt><trkpt lat="42.5250954833" lon="1.6966039035"><ele>2171.36</ele><time>2014-12-23T09:33:28Z</time></trkpt><trkpt lat="42.5249824114" lon="1.6966657620"><ele>2173.72</ele><time>2014-12-23T09:33:43Z</time></trkpt><trkpt lat="42.5248875283" lon="1.6967125330"><ele>2176.02</ele><time>2014-12-23T09:33:55Z</time></trkpt><trkpt lat="42.5247718580" lon="1.6967106052"><ele>2178.25</ele><time>2014-12-23T09:34:08Z</time></trkpt><trkpt lat="42.5246503204" lon="1.6966912430"><ele>2181.26</ele><time>2014-12-23T09:34:23Z</time></trkpt><trkpt lat="42.5245576166" lon="1.6966574639"><ele>2183.22</ele><time>2014-12-23T09:34:35Z</time></trkpt><trkpt lat="42.5244572852" lon="1.6966898181"><ele>2186.50</ele><time>2014-12-23T09:34:52Z</time></trkpt><trkpt lat="42.5243793335" lon="1.6967422049"><ele>2188.64</ele><time>2014-12-23T09:35:06Z</time></trkpt><trkpt lat="42.5242898148" lon="1.6968027223"><ele>2190.97</ele><time>2014-12-23T09:35:20Z</time></trkpt><trkpt lat="42.5242063310" lon="1.6968256049"><ele>2194.04</ele><time>2014-12-23T09:35:34Z</time></trkpt><trkpt lat="42.5241115317" lon="1.6968038958"><ele>2195.76</ele><time>2014-12-23T09:35:47Z</time></trkpt><trkpt lat="42.5241277926" lon="1.6967744753"><ele>2196.38</ele><time>2014-12-23T09:37:47Z</time></trkpt><trkpt lat="42.5241166446" lon="1.6967707872"><ele>2196.42</ele><time>2014-12-23T09:39:55Z</time></trkpt><trkpt lat="42.5240733102" lon="1.6967681050"><ele>2196.00</ele><time>2014-12-23T09:41:26Z</time></trkpt><trkpt lat="42.5241441373" lon="1.6967505869"><ele>2196.63</ele><time>2014-12-23T09:41:53Z</time></trkpt><trkpt lat="42.5241199136" lon="1.6967313085"><ele>2195.96</ele><time>2014-12-23T09:42:24Z</time></trkpt><trkpt lat="42.5241726357" lon="1.6966959368"><ele>2197.20</ele><time>2014-12-23T09:42:46Z</time></trkpt><trkpt lat="42.5241405331" lon="1.6966829449"><ele>2197.01</ele><time>2014-12-23T09:43:10Z</time></trkpt><trkpt lat="42.5240842905" lon="1.6967801750"><ele>2196.03</ele><time>2014-12-23T09:43:35Z</time></trkpt><trkpt lat="42.5241048262" lon="1.6967685241"><ele>2196.46</ele><time>2014-12-23T09:44:11Z</time></trkpt><trkpt lat="42.5240943488" lon="1.6967883892"><ele>2196.21</ele><time>2014-12-23T09:45:05Z</time></trkpt><trkpt lat="42.5240718853" lon="1.6967934184"><ele>2196.37</ele><time>2014-12-23T09:45:57Z</time></trkpt><trkpt lat="42.5241062511" lon="1.6967522632"><ele>2195.90</ele><time>2014-12-23T09:46:59Z</time></trkpt><trkpt lat="42.5240547024" lon="1.6968026385"><ele>2195.76</ele><time>2014-12-23T09:47:41Z</time></trkpt><trkpt lat="42.5239631720" lon="1.6968080029"><ele>2196.38</ele><time>2014-12-23T09:47:50Z</time></trkpt><trkpt lat="42.5238763355" lon="1.6968115233"><ele>2198.14</ele><time>2014-12-23T09:48:02Z</time></trkpt><trkpt lat="42.5237820391" lon="1.6968145408"><ele>2199.31</ele><time>2014-12-23T09:48:11Z</time></trkpt><trkpt lat="42.5236888323" lon="1.6968129482"><ele>2201.37</ele><time>2014-12-23T09:48:23Z</time></trkpt><trkpt lat="42.5235952903" lon="1.6967753973"><ele>2204.68</ele><time>2014-12-23T09:48:38Z</time></trkpt><trkpt lat="42.5235086214" lon="1.6966965236"><ele>2207.39</ele><time>2014-12-23T09:48:56Z</time></trkpt><trkpt lat="42.5234057754" lon="1.6966841184"><ele>2209.70</ele><time>2014-12-23T09:49:09Z</time></trkpt><trkpt lat="42.5233185198" lon="1.6966632474"><ele>2211.05</ele><time>2014-12-23T09:49:20Z</time></trkpt><trkpt lat="42.5232429989" lon="1.6966123693"><ele>2212.56</ele><time>2014-12-23T09:49:34Z</time></trkpt><trkpt lat="42.5231602695" lon="1.6966179851"><ele>2215.64</ele><time>2014-12-23T09:49:53Z</time></trkpt><trkpt lat="42.5230840780" lon="1.6965518519"><ele>2216.25</ele><time>2014-12-23T09:50:20Z</time></trkpt><trkpt lat="42.5229864288" lon="1.6964895744"><ele>2218.26</ele><time>2014-12-23T09:50:33Z</time></trkpt><trkpt lat="42.5228941441" lon="1.6964059230"><ele>2220.63</ele><time>2014-12-23T09:50:45Z</time></trkpt><trkpt lat="42.5227929745" lon="1.6963416338"><ele>2223.24</ele><time>2014-12-23T09:50:58Z</time></trkpt><trkpt lat="42.5226954930" lon="1.6962856427"><ele>2225.83</ele><time>2014-12-23T09:51:12Z</time></trkpt><trkpt lat="42.5225824211" lon="1.6962825414"><ele>2228.34</ele><time>2014-12-23T09:51:25Z</time></trkpt><trkpt lat="42.5224976800" lon="1.6962969583"><ele>2230.41</ele><time>2014-12-23T09:51:40Z</time></trkpt><trkpt lat="42.5224040542" lon="1.6962931026"><ele>2232.93</ele><time>2014-12-23T09:51:57Z</time></trkpt><trkpt lat="42.5223044772" lon="1.6962462477"><ele>2237.47</ele><time>2014-12-23T09:52:22Z</time></trkpt><trkpt lat="42.5222185627" lon="1.6961851437"><ele>2241.57</ele><time>2014-12-23T09:52:44Z</time></trkpt><trkpt lat="42.5221331511" lon="1.6961317509"><ele>2247.09</ele><time>2014-12-23T09:53:13Z</time></trkpt><trkpt lat="42.5220447220" lon="1.6960755084"><ele>2252.17</ele><time>2014-12-23T09:53:38Z</time></trkpt><trkpt lat="42.5219639204" lon="1.6960253846"><ele>2257.40</ele><time>2014-12-23T09:54:01Z</time></trkpt><trkpt lat="42.5218638405" lon="1.6960091237"><ele>2261.05</ele><time>2014-12-23T09:54:21Z</time></trkpt><trkpt lat="42.5217746571" lon="1.6959689744"><ele>2266.70</ele><time>2014-12-23T09:54:49Z</time></trkpt><trkpt lat="42.5216934364" lon="1.6959064454"><ele>2271.54</ele><time>2014-12-23T09:55:13Z</time></trkpt><trkpt lat="42.5215932727" lon="1.6958698165"><ele>2276.64</ele><time>2014-12-23T09:55:41Z</time></trkpt><trkpt lat="42.5214971323" lon="1.6958089639"><ele>2281.27</ele><time>2014-12-23T09:56:06Z</time></trkpt><trkpt lat="42.5213991478" lon="1.6957736760"><ele>2285.17</ele><time>2014-12-23T09:56:26Z</time></trkpt><trkpt lat="42.5213067792" lon="1.6957165953"><ele>2288.14</ele><time>2014-12-23T09:56:43Z</time></trkpt><trkpt lat="42.5212048553" lon="1.6956707463"><ele>2290.27</ele><time>2014-12-23T09:56:55Z</time></trkpt><trkpt lat="42.5211018417" lon="1.6956208739"><ele>2293.10</ele><time>2014-12-23T09:57:08Z</time></trkpt><trkpt lat="42.5209988281" lon="1.6955802217"><ele>2295.04</ele><time>2014-12-23T09:57:20Z</time></trkpt><trkpt lat="42.5209031068" lon="1.6955252364"><ele>2296.88</ele><time>2014-12-23T09:57:32Z</time></trkpt><trkpt lat="42.5208138395" lon="1.6954651382"><ele>2298.09</ele><time>2014-12-23T09:57:44Z</time></trkpt><trkpt lat="42.5207188725" lon="1.6954358853"><ele>2299.16</ele><time>2014-12-23T09:57:55Z</time></trkpt><trkpt lat="42.5206210557" lon="1.6953728534"><ele>2300.74</ele><time>2014-12-23T09:58:07Z</time></trkpt><trkpt lat="42.5205319561" lon="1.6953259986"><ele>2301.99</ele><time>2014-12-23T09:58:20Z</time></trkpt><trkpt lat="42.5204213150" lon="1.6952870227"><ele>2303.29</ele><time>2014-12-23T09:58:35Z</time></trkpt><trkpt lat="42.5203063991" lon="1.6952309478"><ele>2305.10</ele><time>2014-12-23T09:58:50Z</time></trkpt><trkpt lat="42.5201950874" lon="1.6951812431"><ele>2307.48</ele><time>2014-12-23T09:59:06Z</time></trkpt><trkpt lat="42.5200860389" lon="1.6951149423"><ele>2310.23</ele><time>2014-12-23T09:59:24Z</time></trkpt><trkpt lat="42.5199591368" lon="1.6950539220"><ele>2312.74</ele><time>2014-12-23T09:59:39Z</time></trkpt><trkpt lat="42.5198546983" lon="1.6950127669"><ele>2315.96</ele><time>2014-12-23T09:59:54Z</time></trkpt><trkpt lat="42.5197526906" lon="1.6950162034"><ele>2318.07</ele><time>2014-12-23T10:00:08Z</time></trkpt><trkpt lat="42.5196747389" lon="1.6950011160"><ele>2319.65</ele><time>2014-12-23T10:00:28Z</time></trkpt><trkpt lat="42.5195866451" lon="1.6949457116"><ele>2321.04</ele><time>2014-12-23T10:00:48Z</time></trkpt><trkpt lat="42.5194751658" lon="1.6949458793"><ele>2322.35</ele><time>2014-12-23T10:01:02Z</time></trkpt><trkpt lat="42.5193626806" lon="1.6949167941"><ele>2323.68</ele><time>2014-12-23T10:01:15Z</time></trkpt><trkpt lat="42.5192672946" lon="1.6948564444"><ele>2325.49</ele><time>2014-12-23T10:01:29Z</time></trkpt><trkpt lat="42.5192600023" lon="1.6948015429"><ele>2327.05</ele><time>2014-12-23T10:02:06Z</time></trkpt><trkpt lat="42.5192210265" lon="1.6947857011"><ele>2327.57</ele><time>2014-12-23T10:06:44Z</time></trkpt><trkpt lat="42.5192641094" lon="1.6947769001"><ele>2327.28</ele><time>2014-12-23T10:07:34Z</time></trkpt><trkpt lat="42.5192204397" lon="1.6948012076"><ele>2327.18</ele><time>2014-12-23T10:08:58Z</time></trkpt><trkpt lat="42.5192196853" lon="1.6947850306"><ele>2327.34</ele><time>2014-12-23T10:09:41Z</time></trkpt><trkpt lat="42.5192343537" lon="1.6947986931"><ele>2327.73</ele><time>2014-12-23T10:10:26Z</time></trkpt><trkpt lat="42.5191579945" lon="1.6946924105"><ele>2328.92</ele><time>2014-12-23T10:11:25Z</time></trkpt><trkpt lat="42.5190906879" lon="1.6945734713"><ele>2331.11</ele><time>2014-12-23T10:11:42Z</time></trkpt><trkpt lat="42.5190048572" lon="1.6944811027"><ele>2333.70</ele><time>2014-12-23T10:11:57Z</time></trkpt><trkpt lat="42.5189218763" lon="1.6943752393"><ele>2336.06</ele><time>2014-12-23T10:12:13Z</time></trkpt><trkpt lat="42.5188477803" lon="1.6942728125"><ele>2338.39</ele><time>2014-12-23T10:12:28Z</time></trkpt><trkpt lat="42.5187936332" lon="1.6941928491"><ele>2340.23</ele><time>2014-12-23T10:12:41Z</time></trkpt><trkpt lat="42.5187176932" lon="1.6941071022"><ele>2342.19</ele><time>2014-12-23T10:12:56Z</time></trkpt><trkpt lat="42.5186456926" lon="1.6940301564"><ele>2344.02</ele><time>2014-12-23T10:13:09Z</time></trkpt><trkpt lat="42.5185616221" lon="1.6939623468"><ele>2346.23</ele><time>2014-12-23T10:13:24Z</time></trkpt><trkpt lat="42.5184840895" lon="1.6939014941"><ele>2347.95</ele><time>2014-12-23T10:13:38Z</time></trkpt><trkpt lat="42.5183998514" lon="1.6938181780"><ele>2350.00</ele><time>2014-12-23T10:13:52Z</time></trkpt><trkpt lat="42.5183351431" lon="1.6937210318"><ele>2352.45</ele><time>2014-12-23T10:14:07Z</time></trkpt><trkpt lat="42.5182685070" lon="1.6936061159"><ele>2354.44</ele><time>2014-12-23T10:14:22Z</time></trkpt><trkpt lat="42.5182668306" lon="1.6934525594"><ele>2356.97</ele><time>2014-12-23T10:14:36Z</time></trkpt><trkpt lat="42.5182763021" lon="1.6933036130"><ele>2358.22</ele><time>2014-12-23T10:14:50Z</time></trkpt><trkpt lat="42.5182409305" lon="1.6931902058"><ele>2358.96</ele><time>2014-12-23T10:15:05Z</time></trkpt><trkpt lat="42.5181716960" lon="1.6930954065"><ele>2359.18</ele><time>2014-12-23T10:15:19Z</time></trkpt><trkpt lat="42.5181173813" lon="1.6929832567"><ele>2360.99</ele><time>2014-12-23T10:15:38Z</time></trkpt><trkpt lat="42.5180457160" lon="1.6929151956"><ele>2364.78</ele><time>2014-12-23T10:16:06Z</time></trkpt><trkpt lat="42.5179757271" lon="1.6928643174"><ele>2368.25</ele><time>2014-12-23T10:16:32Z</time></trkpt><trkpt lat="42.5178985298" lon="1.6928006988"><ele>2372.69</ele><time>2014-12-23T10:17:03Z</time></trkpt><trkpt lat="42.5178562850" lon="1.6926981043"><ele>2378.49</ele><time>2014-12-23T10:17:48Z</time></trkpt><trkpt lat="42.5177921634" lon="1.6926614754"><ele>2383.98</ele><time>2014-12-23T10:18:26Z</time></trkpt><trkpt lat="42.5177279580" lon="1.6926012933"><ele>2387.47</ele><time>2014-12-23T10:18:51Z</time></trkpt><trkpt lat="42.5177251082" lon="1.6925070807"><ele>2392.78</ele><time>2014-12-23T10:19:24Z</time></trkpt><trkpt lat="42.5176978670" lon="1.6924805101"><ele>2394.38</ele><time>2014-12-23T10:20:49Z</time></trkpt><trkpt lat="42.5176331587" lon="1.6923649237"><ele>2397.04</ele><time>2014-12-23T10:21:07Z</time></trkpt><trkpt lat="42.5176172331" lon="1.6923090164"><ele>2400.00</ele><time>2014-12-23T10:24:16Z</time></trkpt><trkpt lat="42.5175543688" lon="1.6921936814"><ele>2401.54</ele><time>2014-12-23T10:24:34Z</time></trkpt><trkpt lat="42.5174749084" lon="1.6920874827"><ele>2401.62</ele><time>2014-12-23T10:24:53Z</time></trkpt><trkpt lat="42.5173972081" lon="1.6920009814"><ele>2401.57</ele><time>2014-12-23T10:25:06Z</time></trkpt><trkpt lat="42.5173168257" lon="1.6919156536"><ele>2401.08</ele><time>2014-12-23T10:25:21Z</time></trkpt><trkpt lat="42.5172425620" lon="1.6918443237"><ele>2401.53</ele><time>2014-12-23T10:25:36Z</time></trkpt><trkpt lat="42.5171530433" lon="1.6917788610"><ele>2403.23</ele><time>2014-12-23T10:25:52Z</time></trkpt><trkpt lat="42.5170990638" lon="1.6916779429"><ele>2404.42</ele><time>2014-12-23T10:26:06Z</time></trkpt><trkpt lat="42.5170556456" lon="1.6915859096"><ele>2404.00</ele><time>2014-12-23T10:26:20Z</time></trkpt><trkpt lat="42.5169698987" lon="1.6915099695"><ele>2404.23</ele><time>2014-12-23T10:26:40Z</time></trkpt><trkpt lat="42.5168939587" lon="1.6914245579"><ele>2404.14</ele><time>2014-12-23T10:26:55Z</time></trkpt><trkpt lat="42.5168057811" lon="1.6913756914"><ele>2404.91</ele><time>2014-12-23T10:27:08Z</time></trkpt><trkpt lat="42.5167274103" lon="1.6912968177"><ele>2405.84</ele><time>2014-12-23T10:27:22Z</time></trkpt><trkpt lat="42.5166418310" lon="1.6912397370"><ele>2406.61</ele><time>2014-12-23T10:27:36Z</time></trkpt><trkpt lat="42.5165442657" lon="1.6911913734"><ele>2408.71</ele><time>2014-12-23T10:27:52Z</time></trkpt><trkpt lat="42.5164640509" lon="1.6911170259"><ele>2409.47</ele><time>2014-12-23T10:28:07Z</time></trkpt><trkpt lat="42.5163845904" lon="1.6910343803"><ele>2410.41</ele><time>2014-12-23T10:28:23Z</time></trkpt><trkpt lat="42.5163201336" lon="1.6909468733"><ele>2411.53</ele><time>2014-12-23T10:28:39Z</time></trkpt><trkpt lat="42.5162275136" lon="1.6909015272"><ele>2413.15</ele><time>2014-12-23T10:28:55Z</time></trkpt><trkpt lat="42.5161301997" lon="1.6908880323"><ele>2415.35</ele><time>2014-12-23T10:29:12Z</time></trkpt><trkpt lat="42.5160275213" lon="1.6908654012"><ele>2417.06</ele><time>2014-12-23T10:29:32Z</time></trkpt><trkpt lat="42.5159322191" lon="1.6908233240"><ele>2418.68</ele><time>2014-12-23T10:29:51Z</time></trkpt><trkpt lat="42.5158323906" lon="1.6908058058"><ele>2420.88</ele><time>2014-12-23T10:30:10Z</time></trkpt><trkpt lat="42.5157297961" lon="1.6907862760"><ele>2423.11</ele><time>2014-12-23T10:30:29Z</time></trkpt><trkpt lat="42.5156218372" lon="1.6907524969"><ele>2425.33</ele><time>2014-12-23T10:30:45Z</time></trkpt><trkpt lat="42.5155349169" lon="1.6906734556"><ele>2427.72</ele><time>2014-12-23T10:31:04Z</time></trkpt><trkpt lat="42.5154541153" lon="1.6906210687"><ele>2430.26</ele><time>2014-12-23T10:31:21Z</time></trkpt><trkpt lat="42.5153860543" lon="1.6905429494"><ele>2432.74</ele><time>2014-12-23T10:31:39Z</time></trkpt><trkpt lat="42.5153256208" lon="1.6904831026"><ele>2436.69</ele><time>2014-12-23T10:32:03Z</time></trkpt><trkpt lat="42.5152514409" lon="1.6904246807"><ele>2440.37</ele><time>2014-12-23T10:32:23Z</time></trkpt><trkpt lat="42.5151776802" lon="1.6903878842"><ele>2443.51</ele><time>2014-12-23T10:32:39Z</time></trkpt><trkpt lat="42.5151008181" lon="1.6903350782"><ele>2448.00</ele><time>2014-12-23T10:33:04Z</time></trkpt><trkpt lat="42.5150180049" lon="1.6903240141"><ele>2450.81</ele><time>2014-12-23T10:33:28Z</time></trkpt><trkpt lat="42.5149370357" lon="1.6903626546"><ele>2452.89</ele><time>2014-12-23T10:35:25Z</time></trkpt><trkpt lat="42.5148397218" lon="1.6903395206"><ele>2453.44</ele><time>2014-12-23T10:35:41Z</time></trkpt><trkpt lat="42.5147459283" lon="1.6902872175"><ele>2455.44</ele><time>2014-12-23T10:35:57Z</time></trkpt><trkpt lat="42.5146575831" lon="1.6902313102"><ele>2456.95</ele><time>2014-12-23T10:36:10Z</time></trkpt><trkpt lat="42.5145595986" lon="1.6901702061"><ele>2457.43</ele><time>2014-12-23T10:36:22Z</time></trkpt><trkpt lat="42.5144660566" lon="1.6901210044"><ele>2457.95</ele><time>2014-12-23T10:36:34Z</time></trkpt><trkpt lat="42.5143636297" lon="1.6901079286"><ele>2458.49</ele><time>2014-12-23T10:36:47Z</time></trkpt><trkpt lat="42.5142756198" lon="1.6900738142"><ele>2458.62</ele><time>2014-12-23T10:37:01Z</time></trkpt><trkpt lat="42.5141717680" lon="1.6900873929"><ele>2458.98</ele><time>2014-12-23T10:37:17Z</time></trkpt><trkpt lat="42.5140669942" lon="1.6900589783"><ele>2460.41</ele><time>2014-12-23T10:37:34Z</time></trkpt><trkpt lat="42.5139623880" lon="1.6900105309"><ele>2462.76</ele><time>2014-12-23T10:37:51Z</time></trkpt><trkpt lat="42.5138775632" lon="1.6899482533"><ele>2465.02</ele><time>2014-12-23T10:38:08Z</time></trkpt><trkpt lat="42.5137856975" lon="1.6899225209"><ele>2467.95</ele><time>2014-12-23T10:38:26Z</time></trkpt><trkpt lat="42.5136939995" lon="1.6898779292"><ele>2470.52</ele><time>2014-12-23T10:38:45Z</time></trkpt><trkpt lat="42.5136099290" lon="1.6898292303"><ele>2473.14</ele><time>2014-12-23T10:39:03Z</time></trkpt><trkpt lat="42.5135196559" lon="1.6897637676"><ele>2476.10</ele><time>2014-12-23T10:39:23Z</time></trkpt><trkpt lat="42.5134285446" lon="1.6897405498"><ele>2478.82</ele><time>2014-12-23T10:39:45Z</time></trkpt><trkpt lat="42.5133349188" lon="1.6897499375"><ele>2481.39</ele><time>2014-12-23T10:40:05Z</time></trkpt><trkpt lat="42.5132454000" lon="1.6897830460"><ele>2483.23</ele><time>2014-12-23T10:40:22Z</time></trkpt><trkpt lat="42.5131581444" lon="1.6898021568"><ele>2485.86</ele><time>2014-12-23T10:40:40Z</time></trkpt><trkpt lat="42.5130798575" lon="1.6898378637"><ele>2488.57</ele><time>2014-12-23T10:41:01Z</time></trkpt><trkpt lat="42.5129869021" lon="1.6898805276"><ele>2491.03</ele><time>2014-12-23T10:41:19Z</time></trkpt><trkpt lat="42.5128937792" lon="1.6899191681"><ele>2492.68</ele><time>2014-12-23T10:41:34Z</time></trkpt><trkpt lat="42.5128179230" lon="1.6899586469"><ele>2494.38</ele><time>2014-12-23T10:41:52Z</time></trkpt><trkpt lat="42.5127334334" lon="1.6899895761"><ele>2497.18</ele><time>2014-12-23T10:42:12Z</time></trkpt><trkpt lat="42.5126507040" lon="1.6900361795"><ele>2500.12</ele><time>2014-12-23T10:42:32Z</time></trkpt><trkpt lat="42.5125642028" lon="1.6901035700"><ele>2503.74</ele><time>2014-12-23T10:42:55Z</time></trkpt><trkpt lat="42.5124789588" lon="1.6901735589"><ele>2506.52</ele><time>2014-12-23T10:43:17Z</time></trkpt><trkpt lat="42.5123928767" lon="1.6902313102"><ele>2509.90</ele><time>2014-12-23T10:43:40Z</time></trkpt><trkpt lat="42.5123140868" lon="1.6903069150"><ele>2512.32</ele><time>2014-12-23T10:43:59Z</time></trkpt><trkpt lat="42.5122377276" lon="1.6903603915"><ele>2515.19</ele><time>2014-12-23T10:44:19Z</time></trkpt><trkpt lat="42.5122269988" lon="1.6903574578"><ele>2518.03</ele><time>2014-12-23T10:46:40Z</time></trkpt><trkpt lat="42.5121570099" lon="1.6903716233"><ele>2520.28</ele><time>2014-12-23T10:47:23Z</time></trkpt><trkpt lat="42.5120746996" lon="1.6903095134"><ele>2522.59</ele><time>2014-12-23T10:47:39Z</time></trkpt><trkpt lat="42.5119810738" lon="1.6902796738"><ele>2524.74</ele><time>2014-12-23T10:47:55Z</time></trkpt><trkpt lat="42.5118965004" lon="1.6902726330"><ele>2527.37</ele><time>2014-12-23T10:48:13Z</time></trkpt><trkpt lat="42.5118068140" lon="1.6902562045"><ele>2529.97</ele><time>2014-12-23T10:48:30Z</time></trkpt><trkpt lat="42.5117113441" lon="1.6902269516"><ele>2532.29</ele><time>2014-12-23T10:48:46Z</time></trkpt><trkpt lat="42.5116142817" lon="1.6902186535"><ele>2534.42</ele><time>2014-12-23T10:49:03Z</time></trkpt><trkpt lat="42.5115135312" lon="1.6902178153"><ele>2537.47</ele><time>2014-12-23T10:49:24Z</time></trkpt><trkpt lat="42.5114254374" lon="1.6902074218"><ele>2539.95</ele><time>2014-12-23T10:49:43Z</time></trkpt><trkpt lat="42.5113380980" lon="1.6901862994"><ele>2543.51</ele><time>2014-12-23T10:50:06Z</time></trkpt><trkpt lat="42.5112588890" lon="1.6902013030"><ele>2546.37</ele><time>2014-12-23T10:50:25Z</time></trkpt><trkpt lat="42.5111735612" lon="1.6902241018"><ele>2549.26</ele><time>2014-12-23T10:50:45Z</time></trkpt><trkpt lat="42.5111125410" lon="1.6903285403"><ele>2551.52</ele><time>2014-12-23T10:51:04Z</time></trkpt><trkpt lat="42.5110151432" lon="1.6903433762"><ele>2554.12</ele><time>2014-12-23T10:51:26Z</time></trkpt><trkpt lat="42.5109270494" lon="1.6903736349"><ele>2557.89</ele><time>2014-12-23T10:51:53Z</time></trkpt><trkpt lat="42.5108276401" lon="1.6904017143"><ele>2559.95</ele><time>2014-12-23T10:52:11Z</time></trkpt><trkpt lat="42.5107325893" lon="1.6903935000"><ele>2562.71</ele><time>2014-12-23T10:52:32Z</time></trkpt><trkpt lat="42.5106310006" lon="1.6904169694"><ele>2566.32</ele><time>2014-12-23T10:52:53Z</time></trkpt><trkpt lat="42.5105424877" lon="1.6904518381"><ele>2570.37</ele><time>2014-12-23T10:53:14Z</time></trkpt><trkpt lat="42.5104545616" lon="1.6904466413"><ele>2575.87</ele><time>2014-12-23T10:53:39Z</time></trkpt><trkpt lat="42.5103616063" lon="1.6904473118"><ele>2580.08</ele><time>2014-12-23T10:54:00Z</time></trkpt><trkpt lat="42.5102934614" lon="1.6904934961"><ele>2584.29</ele><time>2014-12-23T10:54:20Z</time></trkpt><trkpt lat="42.5102064572" lon="1.6904928256"><ele>2589.07</ele><time>2014-12-23T10:54:43Z</time></trkpt><trkpt lat="42.5101215485" lon="1.6904890537"><ele>2592.56</ele><time>2014-12-23T10:55:01Z</time></trkpt><trkpt lat="42.5100413337" lon="1.6904499941"><ele>2596.53</ele><time>2014-12-23T10:55:21Z</time></trkpt><trkpt lat="42.5099479593" lon="1.6904242616"><ele>2599.74</ele><time>2014-12-23T10:55:39Z</time></trkpt><trkpt lat="42.5098684989" lon="1.6903798375"><ele>2602.44</ele><time>2014-12-23T10:55:54Z</time></trkpt><trkpt lat="42.5097790640" lon="1.6903212480"><ele>2605.04</ele><time>2014-12-23T10:56:14Z</time></trkpt><trkpt lat="42.5097015314" lon="1.6902617365"><ele>2607.85</ele><time>2014-12-23T10:56:33Z</time></trkpt><trkpt lat="42.5096182153" lon="1.6902912408"><ele>2610.72</ele><time>2014-12-23T10:56:53Z</time></trkpt><trkpt lat="42.5095330551" lon="1.6902851220"><ele>2614.06</ele><time>2014-12-23T10:57:18Z</time></trkpt><trkpt lat="42.5094494037" lon="1.6902343277"><ele>2618.92</ele><time>2014-12-23T10:57:44Z</time></trkpt><trkpt lat="42.5093630701" lon="1.6902045719"><ele>2621.27</ele><time>2014-12-23T10:58:01Z</time></trkpt><trkpt lat="42.5092701148" lon="1.6902007163"><ele>2624.42</ele><time>2014-12-23T10:58:23Z</time></trkpt><trkpt lat="42.5091743935" lon="1.6901863832"><ele>2627.28</ele><time>2014-12-23T10:58:47Z</time></trkpt><trkpt lat="42.5090764090" lon="1.6902006324"><ele>2630.09</ele><time>2014-12-23T10:59:06Z</time></trkpt><trkpt lat="42.5089844596" lon="1.6901546158"><ele>2632.86</ele><time>2014-12-23T10:59:27Z</time></trkpt><trkpt lat="42.5088976230" lon="1.6901258659"><ele>2635.12</ele><time>2014-12-23T10:59:43Z</time></trkpt><trkpt lat="42.5088143907" lon="1.6900712997"><ele>2640.74</ele><time>2014-12-23T11:00:20Z</time></trkpt><trkpt lat="42.5087236986" lon="1.6900122073"><ele>2644.55</ele><time>2014-12-23T11:00:46Z</time></trkpt><trkpt lat="42.5086450763" lon="1.6899448168"><ele>2649.06</ele><time>2014-12-23T11:01:16Z</time></trkpt><trkpt lat="42.5085707288" lon="1.6898979619"><ele>2653.90</ele><time>2014-12-23T11:01:44Z</time></trkpt><trkpt lat="42.5084747560" lon="1.6898640152"><ele>2658.54</ele><time>2014-12-23T11:02:13Z</time></trkpt><trkpt lat="42.5084111374" lon="1.6898045875"><ele>2663.89</ele><time>2014-12-23T11:02:48Z</time></trkpt><trkpt lat="42.5083402265" lon="1.6897832137"><ele>2670.06</ele><time>2014-12-23T11:03:23Z</time></trkpt><trkpt lat="42.5082616881" lon="1.6897548828"><ele>2675.38</ele><time>2014-12-23T11:03:58Z</time></trkpt><trkpt lat="42.5082117319" lon="1.6897035856"><ele>2680.82</ele><time>2014-12-23T11:04:32Z</time></trkpt><trkpt lat="42.5081733428" lon="1.6896147374"><ele>2685.30</ele><time>2014-12-23T11:04:57Z</time></trkpt><trkpt lat="42.5081046950" lon="1.6895421501"><ele>2689.04</ele><time>2014-12-23T11:05:21Z</time></trkpt><trkpt lat="42.5080420822" lon="1.6894933674"><ele>2692.56</ele><time>2014-12-23T11:05:45Z</time></trkpt><trkpt lat="42.5081041083" lon="1.6895093769"><ele>2692.66</ele><time>2014-12-23T11:06:36Z</time></trkpt><trkpt lat="42.5080707483" lon="1.6894798726"><ele>2691.49</ele><time>2014-12-23T11:08:46Z</time></trkpt><trkpt lat="42.5080781244" lon="1.6894848179"><ele>2694.86</ele><time>2014-12-23T11:09:31Z</time></trkpt><trkpt lat="42.5081357080" lon="1.6895328462"><ele>2691.02</ele><time>2014-12-23T11:10:04Z</time></trkpt><trkpt lat="42.5080808904" lon="1.6894735023"><ele>2692.78</ele><time>2014-12-23T11:10:54Z</time></trkpt><trkpt lat="42.5080542360" lon="1.6894583311"><ele>2694.91</ele><time>2014-12-23T11:11:23Z</time></trkpt><trkpt lat="42.5080531463" lon="1.6894697305"><ele>2693.34</ele><time>2014-12-23T11:12:43Z</time></trkpt><trkpt lat="42.5080518890" lon="1.6894693114"><ele>2693.91</ele><time>2014-12-23T11:14:03Z</time></trkpt><trkpt lat="42.5080810580" lon="1.6893957183"><ele>2693.91</ele><time>2014-12-23T11:14:34Z</time></trkpt><trkpt lat="42.5080663897" lon="1.6892742645"><ele>2697.30</ele><time>2014-12-23T11:14:49Z</time></trkpt><trkpt lat="42.5081161782" lon="1.6891768668"><ele>2700.44</ele><time>2014-12-23T11:15:06Z</time></trkpt><trkpt lat="42.5081810541" lon="1.6890746914"><ele>2705.22</ele><time>2014-12-23T11:15:44Z</time></trkpt><trkpt lat="42.5082237180" lon="1.6889843345"><ele>2704.92</ele><time>2014-12-23T11:16:05Z</time></trkpt><trkpt lat="42.5082922820" lon="1.6888958216"><ele>2709.45</ele><time>2014-12-23T11:16:30Z</time></trkpt><trkpt lat="42.5082869176" lon="1.6887954064"><ele>2713.85</ele><time>2014-12-23T11:16:56Z</time></trkpt><trkpt lat="42.5082773622" lon="1.6886672471"><ele>2716.79</ele><time>2014-12-23T11:17:16Z</time></trkpt><trkpt lat="42.5082895998" lon="1.6885554325"><ele>2719.99</ele><time>2014-12-23T11:17:38Z</time></trkpt><trkpt lat="42.5083087943" lon="1.6884421092"><ele>2723.94</ele><time>2014-12-23T11:18:06Z</time></trkpt><trkpt lat="42.5083717424" lon="1.6883653309"><ele>2731.14</ele><time>2014-12-23T11:18:37Z</time></trkpt><trkpt lat="42.5084639434" lon="1.6883315518"><ele>2733.48</ele><time>2014-12-23T11:18:58Z</time></trkpt><trkpt lat="42.5084667932" lon="1.6882120259"><ele>2736.71</ele><time>2014-12-23T11:19:27Z</time></trkpt><trkpt lat="42.5085037574" lon="1.6881256923"><ele>2739.92</ele><time>2014-12-23T11:19:45Z</time></trkpt><trkpt lat="42.5085517019" lon="1.6880324855"><ele>2742.21</ele><time>2014-12-23T11:20:06Z</time></trkpt><trkpt lat="42.5085901748" lon="1.6879220959"><ele>2746.22</ele><time>2014-12-23T11:20:30Z</time></trkpt><trkpt lat="42.5086501054" lon="1.6878524423"><ele>2749.16</ele><time>2014-12-23T11:20:48Z</time></trkpt><trkpt lat="42.5087178312" lon="1.6877611633"><ele>2750.80</ele><time>2014-12-23T11:21:08Z</time></trkpt><trkpt lat="42.5087318290" lon="1.6876468342"><ele>2755.08</ele><time>2014-12-23T11:21:30Z</time></trkpt><trkpt lat="42.5087556336" lon="1.6875174176"><ele>2758.87</ele><time>2014-12-23T11:21:55Z</time></trkpt><trkpt lat="42.5087984651" lon="1.6873867437"><ele>2760.92</ele><time>2014-12-23T11:22:11Z</time></trkpt><trkpt lat="42.5088273827" lon="1.6872573271"><ele>2762.44</ele><time>2014-12-23T11:22:24Z</time></trkpt><trkpt lat="42.5088370219" lon="1.6871258151"><ele>2762.38</ele><time>2014-12-23T11:22:36Z</time></trkpt><trkpt lat="42.5088624191" lon="1.6870070435"><ele>2762.81</ele><time>2014-12-23T11:22:47Z</time></trkpt><trkpt lat="42.5088833738" lon="1.6868744418"><ele>2763.00</ele><time>2014-12-23T11:22:59Z</time></trkpt><trkpt lat="42.5088894926" lon="1.6867556702"><ele>2763.51</ele><time>2014-12-23T11:23:12Z</time></trkpt><trkpt lat="42.5089086033" lon="1.6866414249"><ele>2765.02</ele><time>2014-12-23T11:23:27Z</time></trkpt><trkpt lat="42.5088764168" lon="1.6865770519"><ele>2767.13</ele><time>2014-12-23T11:23:51Z</time></trkpt><trkpt lat="42.5089253671" lon="1.6866138484"><ele>2765.83</ele><time>2014-12-23T11:24:16Z</time></trkpt><trkpt lat="42.5089743175" lon="1.6865142714"><ele>2765.36</ele><time>2014-12-23T11:25:01Z</time></trkpt><trkpt lat="42.5090293027" lon="1.6864078213"><ele>2765.67</ele><time>2014-12-23T11:25:16Z</time></trkpt><trkpt lat="42.5090736430" lon="1.6863048915"><ele>2765.13</ele><time>2014-12-23T11:25:32Z</time></trkpt><trkpt lat="42.5091334898" lon="1.6863699351"><ele>2765.47</ele><time>2014-12-23T11:27:20Z</time></trkpt><trkpt lat="42.5091702025" lon="1.6864857730"><ele>2763.23</ele><time>2014-12-23T11:27:35Z</time></trkpt><trkpt lat="42.5091598090" lon="1.6865206417"><ele>2763.03</ele><time>2014-12-23T11:28:38Z</time></trkpt><trkpt lat="42.5091523491" lon="1.6864957474"><ele>2762.28</ele><time>2014-12-23T11:31:00Z</time></trkpt><trkpt lat="42.5091047399" lon="1.6865488887"><ele>2767.19</ele><time>2014-12-23T11:59:04Z</time></trkpt><trkpt lat="42.5090609863" lon="1.6865152773"><ele>2767.62</ele><time>2014-12-23T12:09:19Z</time></trkpt><trkpt lat="42.5090008881" lon="1.6865151096"><ele>2769.63</ele><time>2014-12-23T12:11:16Z</time></trkpt><trkpt lat="42.5089427177" lon="1.6866188776"><ele>2769.92</ele><time>2014-12-23T12:11:26Z</time></trkpt><trkpt lat="42.5088833738" lon="1.6867243219"><ele>2770.40</ele><time>2014-12-23T12:11:37Z</time></trkpt><trkpt lat="42.5088518579" lon="1.6868420877"><ele>2769.09</ele><time>2014-12-23T12:11:46Z</time></trkpt><trkpt lat="42.5088348426" lon="1.6869641282"><ele>2767.70</ele><time>2014-12-23T12:11:56Z</time></trkpt><trkpt lat="42.5088293105" lon="1.6870782897"><ele>2766.70</ele><time>2014-12-23T12:12:05Z</time></trkpt><trkpt lat="42.5088290591" lon="1.6871990729"><ele>2766.05</ele><time>2014-12-23T12:12:14Z</time></trkpt><trkpt lat="42.5088222697" lon="1.6873253882"><ele>2765.02</ele><time>2014-12-23T12:12:23Z</time></trkpt><trkpt lat="42.5088220183" lon="1.6874508653"><ele>2764.23</ele><time>2014-12-23T12:12:32Z</time></trkpt><trkpt lat="42.5087785162" lon="1.6875662841"><ele>2763.19</ele><time>2014-12-23T12:13:28Z</time></trkpt><trkpt lat="42.5087471679" lon="1.6876701359"><ele>2761.70</ele><time>2014-12-23T12:13:43Z</time></trkpt><trkpt lat="42.5087276381" lon="1.6877933498"><ele>2758.21</ele><time>2014-12-23T12:13:55Z</time></trkpt><trkpt lat="42.5087460782" lon="1.6879158933"><ele>2752.22</ele><time>2014-12-23T12:14:14Z</time></trkpt><trkpt lat="42.5086913444" lon="1.6880039033"><ele>2748.71</ele><time>2014-12-23T12:14:25Z</time></trkpt><trkpt lat="42.5086235348" lon="1.6880883928"><ele>2746.86</ele><time>2014-12-23T12:14:37Z</time></trkpt><trkpt lat="42.5085513666" lon="1.6881595552"><ele>2745.42</ele><time>2014-12-23T12:14:49Z</time></trkpt><trkpt lat="42.5084998179" lon="1.6882436257"><ele>2742.30</ele><time>2014-12-23T12:15:07Z</time></trkpt><trkpt lat="42.5084863231" lon="1.6883583739"><ele>2739.47</ele><time>2014-12-23T12:15:21Z</time></trkpt><trkpt lat="42.5084231235" lon="1.6884251777"><ele>2736.97</ele><time>2014-12-23T12:15:35Z</time></trkpt><trkpt lat="42.5083555654" lon="1.6884178855"><ele>2736.04</ele><time>2014-12-23T12:16:11Z</time></trkpt><trkpt lat="42.5083145779" lon="1.6885201447"><ele>2730.47</ele><time>2014-12-23T12:16:33Z</time></trkpt><trkpt lat="42.5082916114" lon="1.6886148602"><ele>2725.99</ele><time>2014-12-23T12:16:51Z</time></trkpt><trkpt lat="42.5082960539" lon="1.6885970067"><ele>2726.50</ele><time>2014-12-23T12:18:22Z</time></trkpt><trkpt lat="42.5082913600" lon="1.6887182929"><ele>2723.52</ele><time>2014-12-23T12:18:36Z</time></trkpt><trkpt lat="42.5083002448" lon="1.6888337117"><ele>2720.47</ele><time>2014-12-23T12:18:50Z</time></trkpt><trkpt lat="42.5082829781" lon="1.6889379825"><ele>2714.55</ele><time>2014-12-23T12:19:16Z</time></trkpt><trkpt lat="42.5082377158" lon="1.6890275013"><ele>2712.34</ele><time>2014-12-23T12:19:36Z</time></trkpt><trkpt lat="42.5081974827" lon="1.6891427524"><ele>2708.89</ele><time>2014-12-23T12:19:49Z</time></trkpt><trkpt lat="42.5081435032" lon="1.6892455984"><ele>2707.02</ele><time>2014-12-23T12:20:01Z</time></trkpt><trkpt lat="42.5081089698" lon="1.6893739253"><ele>2703.54</ele><time>2014-12-23T12:20:13Z</time></trkpt><trkpt lat="42.5080656353" lon="1.6894833930"><ele>2702.12</ele><time>2014-12-23T12:20:25Z</time></trkpt><trkpt lat="42.5081103947" lon="1.6895589139"><ele>2696.82</ele><time>2014-12-23T12:22:14Z</time></trkpt><trkpt lat="42.5081811380" lon="1.6896417271"><ele>2694.15</ele><time>2014-12-23T12:22:41Z</time></trkpt><trkpt lat="42.5082434993" lon="1.6897235345"><ele>2689.99</ele><time>2014-12-23T12:22:53Z</time></trkpt><trkpt lat="42.5083219539" lon="1.6897597443"><ele>2685.18</ele><time>2014-12-23T12:23:06Z</time></trkpt><trkpt lat="42.5083947927" lon="1.6897755023"><ele>2678.83</ele><time>2014-12-23T12:23:22Z</time></trkpt><trkpt lat="42.5084806234" lon="1.6898050904"><ele>2674.59</ele><time>2014-12-23T12:24:29Z</time></trkpt><trkpt lat="42.5085527916" lon="1.6898211837"><ele>2668.53</ele><time>2014-12-23T12:25:00Z</time></trkpt><trkpt lat="42.5086011551" lon="1.6899013985"><ele>2663.20</ele><time>2014-12-23T12:25:25Z</time></trkpt><trkpt lat="42.5086707249" lon="1.6899737343"><ele>2659.69</ele><time>2014-12-23T12:25:41Z</time></trkpt><trkpt lat="42.5087495986" lon="1.6900316533"><ele>2654.74</ele><time>2014-12-23T12:25:59Z</time></trkpt><trkpt lat="42.5088076852" lon="1.6901087668"><ele>2650.83</ele><time>2014-12-23T12:26:39Z</time></trkpt><trkpt lat="42.5088839605" lon="1.6901657637"><ele>2646.48</ele><time>2014-12-23T12:26:51Z</time></trkpt><trkpt lat="42.5089690369" lon="1.6902522650"><ele>2642.00</ele><time>2014-12-23T12:27:05Z</time></trkpt><trkpt lat="42.5090423785" lon="1.6903093457"><ele>2637.57</ele><time>2014-12-23T12:27:18Z</time></trkpt><trkpt lat="42.5091328193" lon="1.6903434601"><ele>2633.88</ele><time>2014-12-23T12:27:32Z</time></trkpt><trkpt lat="42.5092280377" lon="1.6903629061"><ele>2630.61</ele><time>2014-12-23T12:27:45Z</time></trkpt><trkpt lat="42.5093239266" lon="1.6903712042"><ele>2626.70</ele><time>2014-12-23T12:28:00Z</time></trkpt><trkpt lat="42.5094207376" lon="1.6904054862"><ele>2623.44</ele><time>2014-12-23T12:28:15Z</time></trkpt><trkpt lat="42.5095223263" lon="1.6904473957"><ele>2620.25</ele><time>2014-12-23T12:28:27Z</time></trkpt><trkpt lat="42.5096119288" lon="1.6904885508"><ele>2617.65</ele><time>2014-12-23T12:28:38Z</time></trkpt><trkpt lat="42.5096980948" lon="1.6905542649"><ele>2614.74</ele><time>2014-12-23T12:28:48Z</time></trkpt><trkpt lat="42.5097856019" lon="1.6905758902"><ele>2612.65</ele><time>2014-12-23T12:28:58Z</time></trkpt><trkpt lat="42.5098826643" lon="1.6906035505"><ele>2610.65</ele><time>2014-12-23T12:29:09Z</time></trkpt><trkpt lat="42.5099788047" lon="1.6906356532"><ele>2608.82</ele><time>2014-12-23T12:29:21Z</time></trkpt><trkpt lat="42.5099568442" lon="1.6906559374"><ele>2607.61</ele><time>2014-12-23T12:32:13Z</time></trkpt><trkpt lat="42.5099948142" lon="1.6906245053"><ele>2607.36</ele><time>2014-12-23T12:33:29Z</time></trkpt><trkpt lat="42.5100873504" lon="1.6906481422"><ele>2606.00</ele><time>2014-12-23T12:34:43Z</time></trkpt><trkpt lat="42.5101742707" lon="1.6906314623"><ele>2603.08</ele><time>2014-12-23T12:35:03Z</time></trkpt><trkpt lat="42.5102463551" lon="1.6906413529"><ele>2598.12</ele><time>2014-12-23T12:35:24Z</time></trkpt><trkpt lat="42.5103445910" lon="1.6906286124"><ele>2595.08</ele><time>2014-12-23T12:35:34Z</time></trkpt><trkpt lat="42.5104595069" lon="1.6906065680"><ele>2589.64</ele><time>2014-12-23T12:35:49Z</time></trkpt><trkpt lat="42.5105785299" lon="1.6905991919"><ele>2585.06</ele><time>2014-12-23T12:36:01Z</time></trkpt><trkpt lat="42.5106717367" lon="1.6905808356"><ele>2583.14</ele><time>2014-12-23T12:36:05Z</time></trkpt><trkpt lat="42.5107391272" lon="1.6905709449"><ele>2573.68</ele><time>2014-12-23T12:36:33Z</time></trkpt><trkpt lat="42.5108120497" lon="1.6905994434"><ele>2572.46</ele><time>2014-12-23T12:36:53Z</time></trkpt><trkpt lat="42.5109011494" lon="1.6906034667"><ele>2570.82</ele><time>2014-12-23T12:37:01Z</time></trkpt><trkpt lat="42.5109942723" lon="1.6905870382"><ele>2567.75</ele><time>2014-12-23T12:37:11Z</time></trkpt><trkpt lat="42.5110886525" lon="1.6905498225"><ele>2565.73</ele><time>2014-12-23T12:37:19Z</time></trkpt><trkpt lat="42.5111867208" lon="1.6905093379"><ele>2562.90</ele><time>2014-12-23T12:37:27Z</time></trkpt><trkpt lat="42.5112752337" lon="1.6904625669"><ele>2559.20</ele><time>2014-12-23T12:37:37Z</time></trkpt><trkpt lat="42.5113436300" lon="1.6903820168"><ele>2556.24</ele><time>2014-12-23T12:37:48Z</time></trkpt><trkpt lat="42.5114209112" lon="1.6903120279"><ele>2553.54</ele><time>2014-12-23T12:37:58Z</time></trkpt><trkpt lat="42.5115049817" lon="1.6902651731"><ele>2550.64</ele><time>2014-12-23T12:38:07Z</time></trkpt><trkpt lat="42.5115953386" lon="1.6902691964"><ele>2548.08</ele><time>2014-12-23T12:38:16Z</time></trkpt><trkpt lat="42.5116803311" lon="1.6902670171"><ele>2545.93</ele><time>2014-12-23T12:38:25Z</time></trkpt><trkpt lat="42.5117781479" lon="1.6902564559"><ele>2542.95</ele><time>2014-12-23T12:38:35Z</time></trkpt><trkpt lat="42.5118685048" lon="1.6902503371"><ele>2540.29</ele><time>2014-12-23T12:38:44Z</time></trkpt><trkpt lat="42.5119669084" lon="1.6902661789"><ele>2537.64</ele><time>2014-12-23T12:38:54Z</time></trkpt><trkpt lat="42.5120500568" lon="1.6902219225"><ele>2534.80</ele><time>2014-12-23T12:39:04Z</time></trkpt><trkpt lat="42.5121215545" lon="1.6901553702"><ele>2529.96</ele><time>2014-12-23T12:39:25Z</time></trkpt><trkpt lat="42.5121981651" lon="1.6901344992"><ele>2525.72</ele><time>2014-12-23T12:39:56Z</time></trkpt><trkpt lat="42.5122582633" lon="1.6901943460"><ele>2525.35</ele><time>2014-12-23T12:40:18Z</time></trkpt><trkpt lat="42.5123463571" lon="1.6901612375"><ele>2523.35</ele><time>2014-12-23T12:40:32Z</time></trkpt><trkpt lat="42.5124321040" lon="1.6901298892"><ele>2521.38</ele><time>2014-12-23T12:40:44Z</time></trkpt><trkpt lat="42.5125163421" lon="1.6900931764"><ele>2519.21</ele><time>2014-12-23T12:40:54Z</time></trkpt><trkpt lat="42.5126048550" lon="1.6900417116"><ele>2516.17</ele><time>2014-12-23T12:41:04Z</time></trkpt><trkpt lat="42.5126836449" lon="1.6899933480"><ele>2513.47</ele><time>2014-12-23T12:41:14Z</time></trkpt><trkpt lat="42.5127509516" lon="1.6899655201"><ele>2510.55</ele><time>2014-12-23T12:41:23Z</time></trkpt><trkpt lat="42.5128227845" lon="1.6899482533"><ele>2506.50</ele><time>2014-12-23T12:41:38Z</time></trkpt><trkpt lat="42.5128717348" lon="1.6900666058"><ele>2505.44</ele><time>2014-12-23T12:41:53Z</time></trkpt><trkpt lat="42.5128905941" lon="1.6901847906"><ele>2503.63</ele><time>2014-12-23T12:42:06Z</time></trkpt><trkpt lat="42.5128966291" lon="1.6902017221"><ele>2502.93</ele><time>2014-12-23T12:44:26Z</time></trkpt><trkpt lat="42.5129755866" lon="1.6902333219"><ele>2500.13</ele><time>2014-12-23T12:45:04Z</time></trkpt><trkpt lat="42.5130860601" lon="1.6902130377"><ele>2496.30</ele><time>2014-12-23T12:45:19Z</time></trkpt><trkpt lat="42.5131811108" lon="1.6902293824"><ele>2494.07</ele><time>2014-12-23T12:45:25Z</time></trkpt><trkpt lat="42.5132609066" lon="1.6902860440"><ele>2489.73</ele><time>2014-12-23T12:45:38Z</time></trkpt><trkpt lat="42.5133434683" lon="1.6903230920"><ele>2487.07</ele><time>2014-12-23T12:45:50Z</time></trkpt><trkpt lat="42.5134115294" lon="1.6903603077"><ele>2484.02</ele><time>2014-12-23T12:46:05Z</time></trkpt><trkpt lat="42.5135045685" lon="1.6904108506"><ele>2481.88</ele><time>2014-12-23T12:46:19Z</time></trkpt><trkpt lat="42.5135858729" lon="1.6904805042"><ele>2479.78</ele><time>2014-12-23T12:46:31Z</time></trkpt><trkpt lat="42.5136610586" lon="1.6905383393"><ele>2477.84</ele><time>2014-12-23T12:46:44Z</time></trkpt><trkpt lat="42.5137325563" lon="1.6906093340"><ele>2476.49</ele><time>2014-12-23T12:46:55Z</time></trkpt><trkpt lat="42.5138126034" lon="1.6906811669"><ele>2474.76</ele><time>2014-12-23T12:47:06Z</time></trkpt><trkpt lat="42.5138899684" lon="1.6907562688"><ele>2473.38</ele><time>2014-12-23T12:47:18Z</time></trkpt><trkpt lat="42.5139680877" lon="1.6908112541"><ele>2471.86</ele><time>2014-12-23T12:47:30Z</time></trkpt><trkpt lat="42.5140497275" lon="1.6908785608"><ele>2471.12</ele><time>2014-12-23T12:47:43Z</time></trkpt><trkpt lat="42.5141360611" lon="1.6909501422"><ele>2470.82</ele><time>2014-12-23T12:47:57Z</time></trkpt><trkpt lat="42.5142108276" lon="1.6909901239"><ele>2470.20</ele><time>2014-12-23T12:48:07Z</time></trkpt><trkpt lat="42.5143104047" lon="1.6910109110"><ele>2468.88</ele><time>2014-12-23T12:48:21Z</time></trkpt><trkpt lat="42.5144049525" lon="1.6910107434"><ele>2467.73</ele><time>2014-12-23T12:48:37Z</time></trkpt><trkpt lat="42.5145003386" lon="1.6910336260"><ele>2467.34</ele><time>2014-12-23T12:48:48Z</time></trkpt><trkpt lat="42.5145864207" lon="1.6910514794"><ele>2466.37</ele><time>2014-12-23T12:48:58Z</time></trkpt><trkpt lat="42.5146759395" lon="1.6910963226"><ele>2465.38</ele><time>2014-12-23T12:49:08Z</time></trkpt><trkpt lat="42.5147665478" lon="1.6910941433"><ele>2464.45</ele><time>2014-12-23T12:49:19Z</time></trkpt><trkpt lat="42.5148447510" lon="1.6911220551"><ele>2463.17</ele><time>2014-12-23T12:49:30Z</time></trkpt><trkpt lat="42.5149263907" lon="1.6911824048"><ele>2461.94</ele><time>2014-12-23T12:49:41Z</time></trkpt><trkpt lat="42.5150079466" lon="1.6912414134"><ele>2459.70</ele><time>2014-12-23T12:49:53Z</time></trkpt><trkpt lat="42.5150857307" lon="1.6911874339"><ele>2458.06</ele><time>2014-12-23T12:50:03Z</time></trkpt><trkpt lat="42.5151277240" lon="1.6911006812"><ele>2455.61</ele><time>2014-12-23T12:50:13Z</time></trkpt><trkpt lat="42.5151922647" lon="1.6910293512"><ele>2452.99</ele><time>2014-12-23T12:50:22Z</time></trkpt><trkpt lat="42.5152794365" lon="1.6909831669"><ele>2450.71</ele><time>2014-12-23T12:50:32Z</time></trkpt><trkpt lat="42.5153857190" lon="1.6909629665"><ele>2447.85</ele><time>2014-12-23T12:50:43Z</time></trkpt><trkpt lat="42.5154661853" lon="1.6909078974"><ele>2445.29</ele><time>2014-12-23T12:50:52Z</time></trkpt><trkpt lat="42.5155489147" lon="1.6908504814"><ele>2442.61</ele><time>2014-12-23T12:51:03Z</time></trkpt><trkpt lat="42.5156432949" lon="1.6908053868"><ele>2439.83</ele><time>2014-12-23T12:51:17Z</time></trkpt><trkpt lat="42.5157459732" lon="1.6907752957"><ele>2436.94</ele><time>2014-12-23T12:51:33Z</time></trkpt><trkpt lat="42.5158484001" lon="1.6907258425"><ele>2434.87</ele><time>2014-12-23T12:51:48Z</time></trkpt><trkpt lat="42.5159501564" lon="1.6906776465"><ele>2433.72</ele><time>2014-12-23T12:52:05Z</time></trkpt><trkpt lat="42.5160685927" lon="1.6906929854"><ele>2432.83</ele><time>2014-12-23T12:52:20Z</time></trkpt><trkpt lat="42.5161799043" lon="1.6907150298"><ele>2431.55</ele><time>2014-12-23T12:53:29Z</time></trkpt><trkpt lat="42.5162553415" lon="1.6907752957"><ele>2429.37</ele><time>2014-12-23T12:53:40Z</time></trkpt><trkpt lat="42.5163432676" lon="1.6908122599"><ele>2427.03</ele><time>2014-12-23T12:53:50Z</time></trkpt><trkpt lat="42.5164389051" lon="1.6908457875"><ele>2424.54</ele><time>2014-12-23T12:54:01Z</time></trkpt><trkpt lat="42.5165374763" lon="1.6908691730"><ele>2421.95</ele><time>2014-12-23T12:54:11Z</time></trkpt><trkpt lat="42.5166375563" lon="1.6908949893"><ele>2419.68</ele><time>2014-12-23T12:54:23Z</time></trkpt><trkpt lat="42.5167322718" lon="1.6909345519"><ele>2417.96</ele><time>2014-12-23T12:54:33Z</time></trkpt><trkpt lat="42.5168376323" lon="1.6909576859"><ele>2416.04</ele><time>2014-12-23T12:54:44Z</time></trkpt><trkpt lat="42.5169331860" lon="1.6909859329"><ele>2413.35</ele><time>2014-12-23T12:54:55Z</time></trkpt><trkpt lat="42.5170382950" lon="1.6910125036"><ele>2411.59</ele><time>2014-12-23T12:55:05Z</time></trkpt><trkpt lat="42.5171488523" lon="1.6910465341"><ele>2409.76</ele><time>2014-12-23T12:55:17Z</time></trkpt><trkpt lat="42.5172392093" lon="1.6910887789"><ele>2408.10</ele><time>2014-12-23T12:55:26Z</time></trkpt><trkpt lat="42.5173407979" lon="1.6911301855"><ele>2406.70</ele><time>2014-12-23T12:55:37Z</time></trkpt><trkpt lat="42.5174348429" lon="1.6912057903"><ele>2405.57</ele><time>2014-12-23T12:55:48Z</time></trkpt><trkpt lat="42.5175244454" lon="1.6912275832"><ele>2404.43</ele><time>2014-12-23T12:56:00Z</time></trkpt><trkpt lat="42.5176316500" lon="1.6912088916"><ele>2402.59</ele><time>2014-12-23T12:56:13Z</time></trkpt><trkpt lat="42.5177313108" lon="1.6912009288"><ele>2401.30</ele><time>2014-12-23T12:56:25Z</time></trkpt><trkpt lat="42.5178452209" lon="1.6912028566"><ele>2400.09</ele><time>2014-12-23T12:56:36Z</time></trkpt><trkpt lat="42.5178648345" lon="1.6912218835"><ele>2399.38</ele><time>2014-12-23T13:00:35Z</time></trkpt><trkpt lat="42.5179366674" lon="1.6912482865"><ele>2398.59</ele><time>2014-12-23T13:01:02Z</time></trkpt><trkpt lat="42.5180379208" lon="1.6912538186"><ele>2396.59</ele><time>2014-12-23T13:01:12Z</time></trkpt><trkpt lat="42.5181228295" lon="1.6912460234"><ele>2394.25</ele><time>2014-12-23T13:01:21Z</time></trkpt><trkpt lat="42.5181949977" lon="1.6912717558"><ele>2392.88</ele><time>2014-12-23T13:01:31Z</time></trkpt><trkpt lat="42.5182862766" lon="1.6912617814"><ele>2391.70</ele><time>2014-12-23T13:01:43Z</time></trkpt><trkpt lat="42.5183732808" lon="1.6912574228"><ele>2391.75</ele><time>2014-12-23T13:01:56Z</time></trkpt><trkpt lat="42.5184524059" lon="1.6912072990"><ele>2393.24</ele><time>2014-12-23T13:02:13Z</time></trkpt><trkpt lat="42.5185594428" lon="1.6912270803"><ele>2392.98</ele><time>2014-12-23T13:02:25Z</time></trkpt><trkpt lat="42.5186453573" lon="1.6912948061"><ele>2391.78</ele><time>2014-12-23T13:02:40Z</time></trkpt><trkpt lat="42.5187371392" lon="1.6913550720"><ele>2391.92</ele><time>2014-12-23T13:03:20Z</time></trkpt><trkpt lat="42.5188232213" lon="1.6914391425"><ele>2391.71</ele><time>2014-12-23T13:03:36Z</time></trkpt><trkpt lat="42.5189106446" lon="1.6915102210"><ele>2390.98</ele><time>2014-12-23T13:04:06Z</time></trkpt><trkpt lat="42.5189984869" lon="1.6915743425"><ele>2390.46</ele><time>2014-12-23T13:04:21Z</time></trkpt><trkpt lat="42.5190685596" lon="1.6916645318"><ele>2389.85</ele><time>2014-12-23T13:04:40Z</time></trkpt><trkpt lat="42.5191486906" lon="1.6917398013"><ele>2390.14</ele><time>2014-12-23T13:04:54Z</time></trkpt><trkpt lat="42.5192108005" lon="1.6918007378"><ele>2389.93</ele><time>2014-12-23T13:05:11Z</time></trkpt><trkpt lat="42.5193087012" lon="1.6918526217"><ele>2389.99</ele><time>2014-12-23T13:05:29Z</time></trkpt><trkpt lat="42.5193982199" lon="1.6918874066"><ele>2389.58</ele><time>2014-12-23T13:05:39Z</time></trkpt><trkpt lat="42.5194879062" lon="1.6919261310"><ele>2389.60</ele><time>2014-12-23T13:05:50Z</time></trkpt><trkpt lat="42.5195857231" lon="1.6919597425"><ele>2389.87</ele><time>2014-12-23T13:06:03Z</time></trkpt><trkpt lat="42.5196728110" lon="1.6919969581"><ele>2390.43</ele><time>2014-12-23T13:06:15Z</time></trkpt><trkpt lat="42.5197677780" lon="1.6920349281"><ele>2391.40</ele><time>2014-12-23T13:06:26Z</time></trkpt><trkpt lat="42.5198657624" lon="1.6920748260"><ele>2391.17</ele><time>2014-12-23T13:06:36Z</time></trkpt><trkpt lat="42.5199499168" lon="1.6921021510"><ele>2390.99</ele><time>2014-12-23T13:06:46Z</time></trkpt><trkpt lat="42.5200483203" lon="1.6921013128"><ele>2390.63</ele><time>2014-12-23T13:06:57Z</time></trkpt><trkpt lat="42.5201464724" lon="1.6920744907"><ele>2390.39</ele><time>2014-12-23T13:07:11Z</time></trkpt><trkpt lat="42.5202838518" lon="1.6920496803"><ele>2391.43</ele><time>2014-12-23T13:07:24Z</time></trkpt><trkpt lat="42.5203945767" lon="1.6920626722"><ele>2393.80</ele><time>2014-12-23T13:07:47Z</time></trkpt><trkpt lat="42.5204717740" lon="1.6920697130"><ele>2395.86</ele><time>2014-12-23T13:08:07Z</time></trkpt><trkpt lat="42.5204981770" lon="1.6920521948"><ele>2396.28</ele><time>2014-12-23T13:09:28Z</time></trkpt><trkpt lat="42.5204860233" lon="1.6920781787"><ele>2396.10</ele><time>2014-12-23T13:10:41Z</time></trkpt><trkpt lat="42.5204711035" lon="1.6920560505"><ele>2396.14</ele><time>2014-12-23T13:11:52Z</time></trkpt><trkpt lat="42.5204878673" lon="1.6920702998"><ele>2396.55</ele><time>2014-12-23T13:16:21Z</time></trkpt><trkpt lat="42.5205751229" lon="1.6920658574"><ele>2396.86</ele><time>2014-12-23T13:18:32Z</time></trkpt><trkpt lat="42.5206762087" lon="1.6920265462"><ele>2396.05</ele><time>2014-12-23T13:18:43Z</time></trkpt><trkpt lat="42.5207757857" lon="1.6919976287"><ele>2395.11</ele><time>2014-12-23T13:18:54Z</time></trkpt><trkpt lat="42.5208552461" lon="1.6919393744"><ele>2393.37</ele><time>2014-12-23T13:19:04Z</time></trkpt><trkpt lat="42.5209268276" lon="1.6918616742"><ele>2391.33</ele><time>2014-12-23T13:19:17Z</time></trkpt><trkpt lat="42.5209939666" lon="1.6917959601"><ele>2389.08</ele><time>2014-12-23T13:19:29Z</time></trkpt><trkpt lat="42.5210617762" lon="1.6917056032"><ele>2385.58</ele><time>2014-12-23T13:19:42Z</time></trkpt><trkpt lat="42.5211452600" lon="1.6916249692"><ele>2381.48</ele><time>2014-12-23T13:19:55Z</time></trkpt><trkpt lat="42.5212540571" lon="1.6915615182"><ele>2377.35</ele><time>2014-12-23T13:20:09Z</time></trkpt><trkpt lat="42.5213223696" lon="1.6914725862"><ele>2373.32</ele><time>2014-12-23T13:20:21Z</time></trkpt><trkpt lat="42.5213991478" lon="1.6913980711"><ele>2369.50</ele><time>2014-12-23T13:20:33Z</time></trkpt><trkpt lat="42.5214812905" lon="1.6913590953"><ele>2365.42</ele><time>2014-12-23T13:20:44Z</time></trkpt><trkpt lat="42.5215734914" lon="1.6913248133"><ele>2361.56</ele><time>2014-12-23T13:20:54Z</time></trkpt><trkpt lat="42.5216421392" lon="1.6912977397"><ele>2357.51</ele><time>2014-12-23T13:21:04Z</time></trkpt><trkpt lat="42.5217163190" lon="1.6912506334"><ele>2353.35</ele><time>2014-12-23T13:21:14Z</time></trkpt><trkpt lat="42.5217677839" lon="1.6911829915"><ele>2349.56</ele><time>2014-12-23T13:21:27Z</time></trkpt><trkpt lat="42.5218449812" lon="1.6910913773"><ele>2346.01</ele><time>2014-12-23T13:21:39Z</time></trkpt><trkpt lat="42.5219155569" lon="1.6910113301"><ele>2343.45</ele><time>2014-12-23T13:21:48Z</time></trkpt><trkpt lat="42.5219873060" lon="1.6909402516"><ele>2340.55</ele><time>2014-12-23T13:21:59Z</time></trkpt><trkpt lat="42.5220707059" lon="1.6909229010"><ele>2337.27</ele><time>2014-12-23T13:22:09Z</time></trkpt><trkpt lat="42.5221601408" lon="1.6908629704"><ele>2334.22</ele><time>2014-12-23T13:22:19Z</time></trkpt><trkpt lat="42.5222480670" lon="1.6908116732"><ele>2331.43</ele><time>2014-12-23T13:22:29Z</time></trkpt><trkpt lat="42.5222982746" lon="1.6907218192"><ele>2329.77</ele><time>2014-12-23T13:22:39Z</time></trkpt><trkpt lat="42.5223482307" lon="1.6905965935"><ele>2328.30</ele><time>2014-12-23T13:22:59Z</time></trkpt><trkpt lat="42.5224202313" lon="1.6905077454"><ele>2327.23</ele><time>2014-12-23T13:23:09Z</time></trkpt><trkpt lat="42.5224852748" lon="1.6904134490"><ele>2325.64</ele><time>2014-12-23T13:23:22Z</time></trkpt><trkpt lat="42.5225759670" lon="1.6903497465"><ele>2326.15</ele><time>2014-12-23T13:23:34Z</time></trkpt><trkpt lat="42.5226571877" lon="1.6902777459"><ele>2324.08</ele><time>2014-12-23T13:23:48Z</time></trkpt><trkpt lat="42.5227249134" lon="1.6901970282"><ele>2320.54</ele><time>2014-12-23T13:24:00Z</time></trkpt><trkpt lat="42.5228018593" lon="1.6901282966"><ele>2316.62</ele><time>2014-12-23T13:24:11Z</time></trkpt><trkpt lat="42.5229233131" lon="1.6901220940"><ele>2312.40</ele><time>2014-12-23T13:24:24Z</time></trkpt><trkpt lat="42.5229977444" lon="1.6900552902"><ele>2309.00</ele><time>2014-12-23T13:24:35Z</time></trkpt><trkpt lat="42.5230688229" lon="1.6899699625"><ele>2307.06</ele><time>2014-12-23T13:24:47Z</time></trkpt><trkpt lat="42.5231227186" lon="1.6898463294"><ele>2306.84</ele><time>2014-12-23T13:24:59Z</time></trkpt><trkpt lat="42.5231808890" lon="1.6897456627"><ele>2306.07</ele><time>2014-12-23T13:25:08Z</time></trkpt><trkpt lat="42.5232320186" lon="1.6896162461"><ele>2304.18</ele><time>2014-12-23T13:25:18Z</time></trkpt><trkpt lat="42.5232803822" lon="1.6894810461"><ele>2303.29</ele><time>2014-12-23T13:25:28Z</time></trkpt><trkpt lat="42.5233477727" lon="1.6893607657"><ele>2302.87</ele><time>2014-12-23T13:25:41Z</time></trkpt><trkpt lat="42.5234100502" lon="1.6892647929"><ele>2302.36</ele><time>2014-12-23T13:25:52Z</time></trkpt><trkpt lat="42.5235134829" lon="1.6892075446"><ele>2302.96</ele><time>2014-12-23T13:26:03Z</time></trkpt><trkpt lat="42.5235915184" lon="1.6891541518"><ele>2303.29</ele><time>2014-12-23T13:26:11Z</time></trkpt><trkpt lat="42.5236355234" lon="1.6890591010"><ele>2303.92</ele><time>2014-12-23T13:26:25Z</time></trkpt><trkpt lat="42.5236877427" lon="1.6889948957"><ele>2304.19</ele><time>2014-12-23T13:26:37Z</time></trkpt><trkpt lat="42.5237760041" lon="1.6889254935"><ele>2304.57</ele><time>2014-12-23T13:26:51Z</time></trkpt><trkpt lat="42.5238704681" lon="1.6888810694"><ele>2305.37</ele><time>2014-12-23T13:27:03Z</time></trkpt><trkpt lat="42.5239459891" lon="1.6887876112"><ele>2305.42</ele><time>2014-12-23T13:27:14Z</time></trkpt><trkpt lat="42.5239393674" lon="1.6886988468"><ele>2305.35</ele><time>2014-12-23T13:27:32Z</time></trkpt><trkpt lat="42.5240105297" lon="1.6886277683"><ele>2306.64</ele><time>2014-12-23T13:27:44Z</time></trkpt><trkpt lat="42.5241091009" lon="1.6886621341"><ele>2306.17</ele><time>2014-12-23T13:27:53Z</time></trkpt><trkpt lat="42.5241690315" lon="1.6887499765"><ele>2305.61</ele><time>2014-12-23T13:28:04Z</time></trkpt><trkpt lat="42.5242330693" lon="1.6887167841"><ele>2306.11</ele><time>2014-12-23T13:28:27Z</time></trkpt><trkpt lat="42.5243109372" lon="1.6886578593"><ele>2305.88</ele><time>2014-12-23T13:28:36Z</time></trkpt><trkpt lat="42.5244152080" lon="1.6886479687"><ele>2306.51</ele><time>2014-12-23T13:28:49Z</time></trkpt><trkpt lat="42.5245140307" lon="1.6886502318"><ele>2307.78</ele><time>2014-12-23T13:29:02Z</time></trkpt><trkpt lat="42.5246009510" lon="1.6886140220"><ele>2308.89</ele><time>2014-12-23T13:29:16Z</time></trkpt><trkpt lat="42.5246943254" lon="1.6885891277"><ele>2309.11</ele><time>2014-12-23T13:29:27Z</time></trkpt><trkpt lat="42.5247806590" lon="1.6885817517"><ele>2309.21</ele><time>2014-12-23T13:29:41Z</time></trkpt><trkpt lat="42.5248729438" lon="1.6885598749"><ele>2309.41</ele><time>2014-12-23T13:29:51Z</time></trkpt><trkpt lat="42.5249715149" lon="1.6885490622"><ele>2309.51</ele><time>2014-12-23T13:30:01Z</time></trkpt><trkpt lat="42.5250645541" lon="1.6885315441"><ele>2309.19</ele><time>2014-12-23T13:30:12Z</time></trkpt><trkpt lat="42.5251498818" lon="1.6885131877"><ele>2308.92</ele><time>2014-12-23T13:30:21Z</time></trkpt><trkpt lat="42.5252484530" lon="1.6884800792"><ele>2309.35</ele><time>2014-12-23T13:30:32Z</time></trkpt><trkpt lat="42.5253447611" lon="1.6885247547"><ele>2309.63</ele><time>2014-12-23T13:30:44Z</time></trkpt><trkpt lat="42.5254271552" lon="1.6884748824"><ele>2310.21</ele><time>2014-12-23T13:30:55Z</time></trkpt><trkpt lat="42.5255336054" lon="1.6884867847"><ele>2309.76</ele><time>2014-12-23T13:31:08Z</time></trkpt><trkpt lat="42.5256294943" lon="1.6884778999"><ele>2309.85</ele><time>2014-12-23T13:31:20Z</time></trkpt><trkpt lat="42.5257175043" lon="1.6885065660"><ele>2309.29</ele><time>2014-12-23T13:31:31Z</time></trkpt><trkpt lat="42.5258485135" lon="1.6884895507"><ele>2308.43</ele><time>2014-12-23T13:31:44Z</time></trkpt><trkpt lat="42.5259421393" lon="1.6884615552"><ele>2308.45</ele><time>2014-12-23T13:31:57Z</time></trkpt><trkpt lat="42.5259861443" lon="1.6884610523"><ele>2309.21</ele><time>2014-12-23T13:36:30Z</time></trkpt><trkpt lat="42.5259005651" lon="1.6885134391"><ele>2308.95</ele><time>2014-12-23T13:36:48Z</time></trkpt><trkpt lat="42.5258204341" lon="1.6885536723"><ele>2308.92</ele><time>2014-12-23T13:36:59Z</time></trkpt><trkpt lat="42.5257871579" lon="1.6885787342"><ele>2308.67</ele><time>2014-12-23T13:37:55Z</time></trkpt><trkpt lat="42.5257032551" lon="1.6886286903"><ele>2308.62</ele><time>2014-12-23T13:38:39Z</time></trkpt><trkpt lat="42.5256157480" lon="1.6886832565"><ele>2307.66</ele><time>2014-12-23T13:38:54Z</time></trkpt><trkpt lat="42.5255307555" lon="1.6887451988"><ele>2307.00</ele><time>2014-12-23T13:39:15Z</time></trkpt><trkpt lat="42.5255733356" lon="1.6888514813"><ele>2307.15</ele><time>2014-12-23T13:40:04Z</time></trkpt><trkpt lat="42.5255421549" lon="1.6887749545"><ele>2307.06</ele><time>2014-12-23T13:40:41Z</time></trkpt><trkpt lat="42.5255047716" lon="1.6888246592"><ele>2306.72</ele><time>2014-12-23T13:41:55Z</time></trkpt><trkpt lat="42.5254409015" lon="1.6888473742"><ele>2306.67</ele><time>2014-12-23T13:42:23Z</time></trkpt><trkpt lat="42.5253544841" lon="1.6889021918"><ele>2304.31</ele><time>2014-12-23T13:42:35Z</time></trkpt><trkpt lat="42.5252639595" lon="1.6889788862"><ele>2301.45</ele><time>2014-12-23T13:42:48Z</time></trkpt><trkpt lat="42.5252207927" lon="1.6890983284"><ele>2299.07</ele><time>2014-12-23T13:43:04Z</time></trkpt><trkpt lat="42.5251876004" lon="1.6892317683"><ele>2296.93</ele><time>2014-12-23T13:43:18Z</time></trkpt><trkpt lat="42.5252407417" lon="1.6893186886"><ele>2293.78</ele><time>2014-12-23T13:43:35Z</time></trkpt><trkpt lat="42.5252622832" lon="1.6894511227"><ele>2288.21</ele><time>2014-12-23T13:43:54Z</time></trkpt><trkpt lat="42.5252027716" lon="1.6895261407"><ele>2284.09</ele><time>2014-12-23T13:44:23Z</time></trkpt><trkpt lat="42.5251301005" lon="1.6896413919"><ele>2282.20</ele><time>2014-12-23T13:44:38Z</time></trkpt><trkpt lat="42.5251935516" lon="1.6897123866"><ele>2280.62</ele><time>2014-12-23T13:45:13Z</time></trkpt><trkpt lat="42.5252368022" lon="1.6898119636"><ele>2278.88</ele><time>2014-12-23T13:45:37Z</time></trkpt><trkpt lat="42.5253258180" lon="1.6898475867"><ele>2276.60</ele><time>2014-12-23T13:45:49Z</time></trkpt><trkpt lat="42.5254043564" lon="1.6899037454"><ele>2274.80</ele><time>2014-12-23T13:46:00Z</time></trkpt><trkpt lat="42.5254803803" lon="1.6900217626"><ele>2270.59</ele><time>2014-12-23T13:46:13Z</time></trkpt><trkpt lat="42.5255783647" lon="1.6901022289"><ele>2266.21</ele><time>2014-12-23T13:46:26Z</time></trkpt><trkpt lat="42.5256712362" lon="1.6901660990"><ele>2262.37</ele><time>2014-12-23T13:46:41Z</time></trkpt><trkpt lat="42.5257248804" lon="1.6902024765"><ele>2258.44</ele><time>2014-12-23T13:47:07Z</time></trkpt><trkpt lat="42.5256667100" lon="1.6902128700"><ele>2258.36</ele><time>2014-12-23T13:48:05Z</time></trkpt><trkpt lat="42.5257564802" lon="1.6903070826"><ele>2256.53</ele><time>2014-12-23T13:48:18Z</time></trkpt><trkpt lat="42.5258560572" lon="1.6903869621"><ele>2253.64</ele><time>2014-12-23T13:48:30Z</time></trkpt><trkpt lat="42.5259349309" lon="1.6904744692"><ele>2250.98</ele><time>2014-12-23T13:48:42Z</time></trkpt><trkpt lat="42.5259496830" lon="1.6905893851"><ele>2246.24</ele><time>2014-12-23T13:48:57Z</time></trkpt><trkpt lat="42.5260645989" lon="1.6906572785"><ele>2242.69</ele><time>2014-12-23T13:49:12Z</time></trkpt><trkpt lat="42.5261341687" lon="1.6907404270"><ele>2237.63</ele><time>2014-12-23T13:49:31Z</time></trkpt><trkpt lat="42.5262228493" lon="1.6908404231"><ele>2234.29</ele><time>2014-12-23T13:49:47Z</time></trkpt><trkpt lat="42.5263155531" lon="1.6909607034"><ele>2230.63</ele><time>2014-12-23T13:50:02Z</time></trkpt><trkpt lat="42.5264391024" lon="1.6910013556"><ele>2226.34</ele><time>2014-12-23T13:50:19Z</time></trkpt><trkpt lat="42.5265483186" lon="1.6910643876"><ele>2222.75</ele><time>2014-12-23T13:50:35Z</time></trkpt><trkpt lat="42.5265544374" lon="1.6912090592"><ele>2222.69</ele><time>2014-12-23T13:50:53Z</time></trkpt><trkpt lat="42.5265818462" lon="1.6912425030"><ele>2222.16</ele><time>2014-12-23T13:51:37Z</time></trkpt><trkpt lat="42.5266635697" lon="1.6912875976"><ele>2221.57</ele><time>2014-12-23T13:52:00Z</time></trkpt><trkpt lat="42.5267671701" lon="1.6913207062"><ele>2220.45</ele><time>2014-12-23T13:52:13Z</time></trkpt><trkpt lat="42.5268504862" lon="1.6914355382"><ele>2217.79</ele><time>2014-12-23T13:52:29Z</time></trkpt><trkpt lat="42.5269467942" lon="1.6915294994"><ele>2216.58</ele><time>2014-12-23T13:52:43Z</time></trkpt><trkpt lat="42.5270394143" lon="1.6916502826"><ele>2216.17</ele><time>2014-12-23T13:52:59Z</time></trkpt><trkpt lat="42.5271257479" lon="1.6917741671"><ele>2215.04</ele><time>2014-12-23T13:53:18Z</time></trkpt><trkpt lat="42.5272113271" lon="1.6919211857"><ele>2213.15</ele><time>2014-12-23T13:53:33Z</time></trkpt><trkpt lat="42.5272839982" lon="1.6920152307"><ele>2210.49</ele><time>2014-12-23T13:53:49Z</time></trkpt><trkpt lat="42.5274065416" lon="1.6920606606"><ele>2209.75</ele><time>2014-12-23T13:54:05Z</time></trkpt><trkpt lat="42.5274527259" lon="1.6920969542"><ele>2209.03</ele><time>2014-12-23T13:54:53Z</time></trkpt><trkpt lat="42.5275292527" lon="1.6921632551"><ele>2207.36</ele><time>2014-12-23T13:55:09Z</time></trkpt><trkpt lat="42.5275548175" lon="1.6922455654"><ele>2201.89</ele><time>2014-12-23T13:55:27Z</time></trkpt><trkpt lat="42.5276193582" lon="1.6923156381"><ele>2197.65</ele><time>2014-12-23T13:55:44Z</time></trkpt><trkpt lat="42.5277299993" lon="1.6923204158"><ele>2194.21</ele><time>2014-12-23T13:55:59Z</time></trkpt><trkpt lat="42.5278346892" lon="1.6923608165"><ele>2191.56</ele><time>2014-12-23T13:56:11Z</time></trkpt><trkpt lat="42.5279444084" lon="1.6923710424"><ele>2190.24</ele><time>2014-12-23T13:56:23Z</time></trkpt><trkpt lat="42.5280635990" lon="1.6924211662"><ele>2188.15</ele><time>2014-12-23T13:56:36Z</time></trkpt><trkpt lat="42.5280976295" lon="1.6924728826"><ele>2186.97</ele><time>2014-12-23T13:59:40Z</time></trkpt><trkpt lat="42.5280499365" lon="1.6924646683"><ele>2186.00</ele><time>2014-12-23T14:01:09Z</time></trkpt><trkpt lat="42.5281381980" lon="1.6924874671"><ele>2186.16</ele><time>2014-12-23T14:01:42Z</time></trkpt><trkpt lat="42.5282491744" lon="1.6925331485"><ele>2185.10</ele><time>2014-12-23T14:01:51Z</time></trkpt><trkpt lat="42.5283586420" lon="1.6925639100"><ele>2183.54</ele><time>2014-12-23T14:02:01Z</time></trkpt><trkpt lat="42.5284647569" lon="1.6926245112"><ele>2181.52</ele><time>2014-12-23T14:02:13Z</time></trkpt><trkpt lat="42.5285766553" lon="1.6926569492"><ele>2180.31</ele><time>2014-12-23T14:02:22Z</time></trkpt><trkpt lat="42.5286787469" lon="1.6927107610"><ele>2179.67</ele><time>2014-12-23T14:02:31Z</time></trkpt><trkpt lat="42.5287707802" lon="1.6927890480"><ele>2179.27</ele><time>2014-12-23T14:02:41Z</time></trkpt><trkpt lat="42.5288664177" lon="1.6928476375"><ele>2177.92</ele><time>2014-12-23T14:02:51Z</time></trkpt><trkpt lat="42.5288826786" lon="1.6928799916"><ele>2175.77</ele><time>2014-12-23T14:03:36Z</time></trkpt><trkpt lat="42.5289955828" lon="1.6929341387"><ele>2175.07</ele><time>2014-12-23T14:03:51Z</time></trkpt><trkpt lat="42.5290936511" lon="1.6929015331"><ele>2174.54</ele><time>2014-12-23T14:04:19Z</time></trkpt><trkpt lat="42.5291987602" lon="1.6928868648"><ele>2174.05</ele><time>2014-12-23T14:04:33Z</time></trkpt><trkpt lat="42.5293063000" lon="1.6929136869"><ele>2171.61</ele><time>2014-12-23T14:04:47Z</time></trkpt><trkpt lat="42.5293955673" lon="1.6928841826"><ele>2168.48</ele><time>2014-12-23T14:05:09Z</time></trkpt><trkpt lat="42.5295136683" lon="1.6929060593"><ele>2168.38</ele><time>2014-12-23T14:05:23Z</time></trkpt><trkpt lat="42.5295823161" lon="1.6929343063"><ele>2167.61</ele><time>2014-12-23T14:05:47Z</time></trkpt><trkpt lat="42.5296512153" lon="1.6930498090"><ele>2165.73</ele><time>2014-12-23T14:06:02Z</time></trkpt><trkpt lat="42.5296905264" lon="1.6931726877"><ele>2162.72</ele><time>2014-12-23T14:06:14Z</time></trkpt><trkpt lat="42.5297650415" lon="1.6932490468"><ele>2161.15</ele><time>2014-12-23T14:06:24Z</time></trkpt><trkpt lat="42.5298311748" lon="1.6933395714"><ele>2160.12</ele><time>2014-12-23T14:06:35Z</time></trkpt><trkpt lat="42.5298592541" lon="1.6934152599"><ele>2158.05</ele><time>2014-12-23T14:06:45Z</time></trkpt><trkpt lat="42.5298686419" lon="1.6935197823"><ele>2155.71</ele><time>2014-12-23T14:06:55Z</time></trkpt><trkpt lat="42.5298642833" lon="1.6936542280"><ele>2154.03</ele><time>2014-12-23T14:07:05Z</time></trkpt><trkpt lat="42.5298863277" lon="1.6937707365"><ele>2152.87</ele><time>2014-12-23T14:07:15Z</time></trkpt><trkpt lat="42.5299649499" lon="1.6938623507"><ele>2151.31</ele><time>2014-12-23T14:07:26Z</time></trkpt><trkpt lat="42.5300196838" lon="1.6939610895"><ele>2149.67</ele><time>2014-12-23T14:07:36Z</time></trkpt><trkpt lat="42.5300567318" lon="1.6940757539"><ele>2147.33</ele><time>2014-12-23T14:07:46Z</time></trkpt><trkpt lat="42.5301019102" lon="1.6941910889"><ele>2145.56</ele><time>2014-12-23T14:07:56Z</time></trkpt><trkpt lat="42.5301309954" lon="1.6943067592"><ele>2144.19</ele><time>2014-12-23T14:08:05Z</time></trkpt><trkpt lat="42.5301448256" lon="1.6944287997"><ele>2143.57</ele><time>2014-12-23T14:08:15Z</time></trkpt><trkpt lat="42.5301506091" lon="1.6945552826"><ele>2143.63</ele><time>2014-12-23T14:08:25Z</time></trkpt><trkpt lat="42.5301329233" lon="1.6946960986"><ele>2143.71</ele><time>2014-12-23T14:08:37Z</time></trkpt><trkpt lat="42.5301055145" lon="1.6948318016"><ele>2143.85</ele><time>2014-12-23T14:08:48Z</time></trkpt><trkpt lat="42.5301000662" lon="1.6949415207"><ele>2142.14</ele><time>2014-12-23T14:09:00Z</time></trkpt><trkpt lat="42.5301171653" lon="1.6950593702"><ele>2140.05</ele><time>2014-12-23T14:09:12Z</time></trkpt><trkpt lat="42.5301304087" lon="1.6951941513"><ele>2137.39</ele><time>2014-12-23T14:09:23Z</time></trkpt><trkpt lat="42.5301501062" lon="1.6953117494"><ele>2134.77</ele><time>2014-12-23T14:09:33Z</time></trkpt><trkpt lat="42.5301445741" lon="1.6954318620"><ele>2133.02</ele><time>2014-12-23T14:09:44Z</time></trkpt><trkpt lat="42.5301210210" lon="1.6955500469"><ele>2130.82</ele><time>2014-12-23T14:09:55Z</time></trkpt><trkpt lat="42.5301009882" lon="1.6956660524"><ele>2128.75</ele><time>2014-12-23T14:10:05Z</time></trkpt><trkpt lat="42.5300738309" lon="1.6958011687"><ele>2126.49</ele><time>2014-12-23T14:10:15Z</time></trkpt><trkpt lat="42.5300567318" lon="1.6959402245"><ele>2125.30</ele><time>2014-12-23T14:10:25Z</time></trkpt><trkpt lat="42.5300461706" lon="1.6960617620"><ele>2123.46</ele><time>2014-12-23T14:10:37Z</time></trkpt><trkpt lat="42.5300434045" lon="1.6961854789"><ele>2122.48</ele><time>2014-12-23T14:10:49Z</time></trkpt><trkpt lat="42.5300586596" lon="1.6963107046"><ele>2121.65</ele><time>2014-12-23T14:10:59Z</time></trkpt><trkpt lat="42.5300520379" lon="1.6964329965"><ele>2121.36</ele><time>2014-12-23T14:11:10Z</time></trkpt><trkpt lat="42.5301402994" lon="1.6965057515"><ele>2121.00</ele><time>2014-12-23T14:11:17Z</time></trkpt><trkpt lat="42.5302340090" lon="1.6965756565"><ele>2120.95</ele><time>2014-12-23T14:11:25Z</time></trkpt><trkpt lat="42.5303047523" lon="1.6966701206"><ele>2120.77</ele><time>2014-12-23T14:11:33Z</time></trkpt><trkpt lat="42.5303133857" lon="1.6968082543"><ele>2120.84</ele><time>2014-12-23T14:11:42Z</time></trkpt><trkpt lat="42.5303371064" lon="1.6969307978"><ele>2120.81</ele><time>2014-12-23T14:11:51Z</time></trkpt><trkpt lat="42.5304280501" lon="1.6970046423"><ele>2121.02</ele><time>2014-12-23T14:12:01Z</time></trkpt><trkpt lat="42.5305313990" lon="1.6969757248"><ele>2120.82</ele><time>2014-12-23T14:12:10Z</time></trkpt><trkpt lat="42.5306360051" lon="1.6969281994"><ele>2120.12</ele><time>2014-12-23T14:12:20Z</time></trkpt><trkpt lat="42.5307268649" lon="1.6968973540"><ele>2119.74</ele><time>2014-12-23T14:12:29Z</time></trkpt><trkpt lat="42.5308151264" lon="1.6968995333"><ele>2119.78</ele><time>2014-12-23T14:12:37Z</time></trkpt><trkpt lat="42.5309134461" lon="1.6969178058"><ele>2120.07</ele><time>2014-12-23T14:12:47Z</time></trkpt><trkpt lat="42.5309967622" lon="1.6969821788"><ele>2119.51</ele><time>2014-12-23T14:12:56Z</time></trkpt><trkpt lat="42.5310912263" lon="1.6970115155"><ele>2119.03</ele><time>2014-12-23T14:13:04Z</time></trkpt><trkpt lat="42.5311704352" lon="1.6969553567"><ele>2118.02</ele><time>2014-12-23T14:13:13Z</time></trkpt><trkpt lat="42.5312395860" lon="1.6968798358"><ele>2117.55</ele><time>2014-12-23T14:13:21Z</time></trkpt><trkpt lat="42.5313164480" lon="1.6968054883"><ele>2117.42</ele><time>2014-12-23T14:13:29Z</time></trkpt><trkpt lat="42.5313985068" lon="1.6967320628"><ele>2117.21</ele><time>2014-12-23T14:13:38Z</time></trkpt><trkpt lat="42.5314866006" lon="1.6966522671"><ele>2117.28</ele><time>2014-12-23T14:13:48Z</time></trkpt><trkpt lat="42.5315432623" lon="1.6965536121"><ele>2117.40</ele><time>2014-12-23T14:13:57Z</time></trkpt><trkpt lat="42.5316010974" lon="1.6964542866"><ele>2117.43</ele><time>2014-12-23T14:14:05Z</time></trkpt><trkpt lat="42.5316808093" lon="1.6963884048"><ele>2117.26</ele><time>2014-12-23T14:14:14Z</time></trkpt><trkpt lat="42.5317559112" lon="1.6964690387"><ele>2116.95</ele><time>2014-12-23T14:14:28Z</time></trkpt><trkpt lat="42.5318047777" lon="1.6965985391"><ele>2116.93</ele><time>2014-12-23T14:14:39Z</time></trkpt><trkpt lat="42.5318592601" lon="1.6967170592"><ele>2116.85</ele><time>2014-12-23T14:14:49Z</time></trkpt><trkpt lat="42.5318781193" lon="1.6968003754"><ele>2116.40</ele><time>2014-12-23T14:15:19Z</time></trkpt></trkseg></trk></gpx>
